Wetterdaten: Mittwoch, 25.06.2014
Datum Zeit Temp. Aussen +5cm Feuchte Auss Luftdruck Regen Sonnenschein Regendauer UV Solar Windben
25.06.2014 00:00 14,1 C 12,8 C 84 % 1015,6 hPa 0,0 l/m 0 min 0 min 0,0 UV-I 0 W/m 12,6 km/h (3 Bft)
25.06.2014 00:02 14,1 C 12,8 C 84 % 1015,6 hPa 0,0 l/m 0 min 2 min 0,0 UV-I 0 W/m 12,6 km/h (3 Bft)
25.06.2014 00:05 14,1 C 12,8 C 84 % 1015,6 hPa 0,0 l/m 0 min 0 min 0,0 UV-I 0 W/m 14,6 km/h (3 Bft)
25.06.2014 00:06 14,1 C 12,8 C 84 % 1015,6 hPa 0,0 l/m 0 min 0 min 0,0 UV-I 0 W/m 10,5 km/h (2 Bft)
25.06.2014 00:08 14,1 C 12,8 C 84 % 1015,7 hPa 0,0 l/m 0 min 2 min 0,0 UV-I 0 W/m 14,6 km/h (3 Bft)
25.06.2014 00:10 14,1 C 12,8 C 84 % 1015,7 hPa 0,0 l/m 0 min 0 min 0,0 UV-I 0 W/m 10,5 km/h (2 Bft)
25.06.2014 00:12 14,1 C 12,8 C 84 % 1015,6 hPa 0,0 l/m 0 min 0 min 0,0 UV-I 0 W/m 8,4 km/h (2 Bft)
25.06.2014 00:14 14,0 C 12,8 C 85 % 1015,7 hPa 0,0 l/m 0 min 0 min 0,0 UV-I 0 W/m 0,0 km/h (0 Bft)
25.06.2014 00:16 14,0 C 12,8 C 85 % 1015,7 hPa 0,0 l/m 0 min 2 min 0,0 UV-I 0 W/m 10,5 km/h (2 Bft)
25.06.2014 00:18 14,0 C 12,8 C 85 % 1015,6 hPa 0,0 l/m 0 min 2 min 0,0 UV-I 0 W/m 10,5 km/h (2 Bft)
25.06.2014 00:20 14,0 C 12,8 C 85 % 1015,7 hPa 0,0 l/m 0 min 2 min 0,0 UV-I 0 W/m 8,4 km/h (2 Bft)
25.06.2014 00:22 13,9 C 12,8 C 85 % 1015,7 hPa 0,0 l/m 0 min 2 min 0,0 UV-I 0 W/m 4,2 km/h (1 Bft)
25.06.2014 00:24 13,9 C 12,8 C 85 % 1015,8 hPa 0,0 l/m 0 min 2 min 0,0 UV-I 0 W/m 12,6 km/h (3 Bft)
25.06.2014 00:26 13,9 C 12,8 C 85 % 1015,8 hPa 0,0 l/m 0 min 0 min 0,0 UV-I 0 W/m 6,3 km/h (2 Bft)
25.06.2014 00:28 13,9 C 12,8 C 85 % 1015,8 hPa 0,0 l/m 0 min 0 min 0,0 UV-I 0 W/m 4,2 km/h (1 Bft)
25.06.2014 00:30 13,9 C 12,8 C 85 % 1015,7 hPa 0,0 l/m 0 min 0 min 0,0 UV-I 0 W/m 8,4 km/h (2 Bft)
25.06.2014 00:32 13,9 C 12,8 C 85 % 1015,6 hPa 0,0 l/m 0 min 0 min 0,0 UV-I 0 W/m 8,4 km/h (2 Bft)
25.06.2014 00:34 13,9 C 12,8 C 85 % 1015,6 hPa 0,0 l/m 0 min 0 min 0,0 UV-I 0 W/m 8,4 km/h (2 Bft)
25.06.2014 00:36 13,9 C 12,8 C 85 % 1015,6 hPa 0,0 l/m 0 min 0 min 0,0 UV-I 0 W/m 10,5 km/h (2 Bft)
25.06.2014 00:38 13,9 C 12,8 C 85 % 1015,6 hPa 0,0 l/m 0 min 0 min 0,0 UV-I 0 W/m 4,2 km/h (1 Bft)
25.06.2014 00:40 13,9 C 12,8 C 85 % 1015,7 hPa 0,0 l/m 0 min 0 min 0,0 UV-I 0 W/m 8,4 km/h (2 Bft)
25.06.2014 00:42 13,9 C 12,8 C 85 % 1015,7 hPa 0,0 l/m 0 min 0 min 0,0 UV-I 0 W/m 6,3 km/h (2 Bft)
25.06.2014 00:44 13,9 C 12,8 C 85 % 1015,8 hPa 0,0 l/m 0 min 0 min 0,0 UV-I 0 W/m 6,3 km/h (2 Bft)
25.06.2014 00:46 13,9 C 12,8 C 85 % 1015,8 hPa 0,0 l/m 0 min 0 min 0,0 UV-I 0 W/m 10,5 km/h (2 Bft)
25.06.2014 00:48 13,9 C 12,8 C 85 % 1015,7 hPa 0,0 l/m 0 min 0 min 0,0 UV-I 0 W/m 6,3 km/h (2 Bft)
25.06.2014 00:50 13,9 C 12,8 C 85 % 1015,6 hPa 0,0 l/m 0 min 0 min 0,0 UV-I 0 W/m 2,1 km/h (1 Bft)
25.06.2014 00:52 13,9 C 12,8 C 86 % 1015,6 hPa 0,0 l/m 0 min 0 min 0,0 UV-I 0 W/m 8,4 km/h (2 Bft)
25.06.2014 00:54 13,9 C 12,8 C 86 % 1015,6 hPa 0,0 l/m 0 min 0 min 0,0 UV-I 0 W/m 6,3 km/h (2 Bft)
25.06.2014 00:56 13,9 C 12,8 C 86 % 1015,7 hPa 0,0 l/m 0 min 0 min 0,0 UV-I 0 W/m 10,5 km/h (2 Bft)
25.06.2014 00:58 13,9 C 12,8 C 86 % 1015,7 hPa 0,0 l/m 0 min 0 min 0,0 UV-I 0 W/m 8,4 km/h (2 Bft)
25.06.2014 01:00 13,9 C 12,8 C 86 % 1015,7 hPa 0,0 l/m 0 min 0 min 0,0 UV-I 0 W/m 8,4 km/h (2 Bft)
25.06.2014 01:02 13,9 C 12,8 C 86 % 1015,7 hPa 0,0 l/m 0 min 0 min 0,0 UV-I 0 W/m 10,5 km/h (2 Bft)
25.06.2014 01:04 13,8 C 12,8 C 86 % 1015,7 hPa 0,0 l/m 0 min 0 min 0,0 UV-I 0 W/m 10,5 km/h (2 Bft)
25.06.2014 01:06 13,8 C 12,8 C 86 % 1015,6 hPa 0,0 l/m 0 min 0 min 0,0 UV-I 0 W/m 8,4 km/h (2 Bft)
25.06.2014 01:08 13,8 C 12,8 C 86 % 1015,7 hPa 0,0 l/m 0 min 0 min 0,0 UV-I 0 W/m 10,5 km/h (2 Bft)
25.06.2014 01:10 13,8 C 12,8 C 86 % 1015,6 hPa 0,0 l/m 0 min 0 min 0,0 UV-I 0 W/m 6,3 km/h (2 Bft)
25.06.2014 01:12 13,8 C 12,8 C 85 % 1015,6 hPa 0,0 l/m 0 min 0 min 0,0 UV-I 0 W/m 10,5 km/h (2 Bft)
25.06.2014 01:14 13,8 C 12,8 C 85 % 1015,7 hPa 0,0 l/m 0 min 0 min 0,0 UV-I 0 W/m 10,5 km/h (2 Bft)
25.06.2014 01:16 13,8 C 12,8 C 85 % 1015,6 hPa 0,0 l/m 0 min 0 min 0,0 UV-I 0 W/m 14,6 km/h (3 Bft)
25.06.2014 01:18 13,8 C 12,8 C 85 % 1015,6 hPa 0,0 l/m 0 min 0 min 0,0 UV-I 0 W/m 10,5 km/h (2 Bft)
25.06.2014 01:20 13,8 C 12,8 C 85 % 1015,6 hPa 0,0 l/m 0 min 0 min 0,0 UV-I 0 W/m 8,4 km/h (2 Bft)
25.06.2014 01:22 13,8 C 12,8 C 85 % 1015,6 hPa 0,0 l/m 0 min 0 min 0,0 UV-I 0 W/m 8,4 km/h (2 Bft)
25.06.2014 01:24 13,8 C 12,8 C 85 % 1015,6 hPa 0,0 l/m 0 min 0 min 0,0 UV-I 0 W/m 8,4 km/h (2 Bft)
25.06.2014 01:26 13,8 C 12,8 C 85 % 1015,5 hPa 0,0 l/m 0 min 0 min 0,0 UV-I 0 W/m 12,6 km/h (3 Bft)
25.06.2014 01:28 13,8 C 12,8 C 86 % 1015,6 hPa 0,0 l/m 0 min 0 min 0,0 UV-I 0 W/m 8,4 km/h (2 Bft)
25.06.2014 01:30 13,8 C 12,8 C 86 % 1015,6 hPa 0,0 l/m 0 min 0 min 0,0 UV-I 0 W/m 14,6 km/h (3 Bft)
25.06.2014 01:32 13,8 C 12,8 C 86 % 1015,5 hPa 0,0 l/m 0 min 0 min 0,0 UV-I 0 W/m 10,5 km/h (2 Bft)
25.06.2014 01:34 13,8 C 12,8 C 86 % 1015,5 hPa 0,0 l/m 0 min 0 min 0,0 UV-I 0 W/m 10,5 km/h (2 Bft)
25.06.2014 01:36 13,8 C 12,8 C 86 % 1015,5 hPa 0,0 l/m 0 min 0 min 0,0 UV-I 0 W/m 14,6 km/h (3 Bft)
25.06.2014 01:38 13,8 C 12,8 C 86 % 1015,5 hPa 0,0 l/m 0 min 0 min 0,0 UV-I 0 W/m 12,6 km/h (3 Bft)
25.06.2014 01:40 13,8 C 12,8 C 87 % 1015,4 hPa 0,0 l/m 0 min 0 min 0,0 UV-I 0 W/m 16,7 km/h (3 Bft)
25.06.2014 01:42 13,7 C 12,8 C 87 % 1015,5 hPa 0,0 l/m 0 min 0 min 0,0 UV-I 0 W/m 10,5 km/h (2 Bft)
25.06.2014 01:44 13,7 C 12,8 C 87 % 1015,5 hPa 0,0 l/m 0 min 0 min 0,0 UV-I 0 W/m 10,5 km/h (2 Bft)
25.06.2014 01:46 13,7 C 12,8 C 87 % 1015,5 hPa 0,0 l/m 0 min 0 min 0,0 UV-I 0 W/m 14,6 km/h (3 Bft)
25.06.2014 01:48 13,7 C 12,8 C 87 % 1015,5 hPa 0,0 l/m 0 min 0 min 0,0 UV-I 0 W/m 10,5 km/h (2 Bft)
25.06.2014 01:50 13,7 C 12,8 C 87 % 1015,5 hPa 0,0 l/m 0 min 0 min 0,0 UV-I 0 W/m 10,5 km/h (2 Bft)
25.06.2014 01:52 13,7 C 12,8 C 86 % 1015,5 hPa 0,0 l/m 0 min 0 min 0,0 UV-I 0 W/m 12,6 km/h (3 Bft)
25.06.2014 01:54 13,7 C 12,8 C 86 % 1015,5 hPa 0,0 l/m 0 min 0 min 0,0 UV-I 0 W/m 14,6 km/h (3 Bft)
25.06.2014 01:56 13,7 C 12,8 C 86 % 1015,5 hPa 0,0 l/m 0 min 0 min 0,0 UV-I 0 W/m 14,6 km/h (3 Bft)
25.06.2014 01:58 13,7 C 12,8 C 86 % 1015,5 hPa 0,0 l/m 0 min 0 min 0,0 UV-I 0 W/m 12,6 km/h (3 Bft)
25.06.2014 02:00 13,7 C 12,8 C 86 % 1015,5 hPa 0,0 l/m 0 min 0 min 0,0 UV-I 0 W/m 8,4 km/h (2 Bft)
25.06.2014 02:02 13,7 C 12,8 C 86 % 1015,5 hPa 0,0 l/m 0 min 0 min 0,0 UV-I 0 W/m 10,5 km/h (2 Bft)
25.06.2014 02:04 13,7 C 12,8 C 86 % 1015,5 hPa 0,0 l/m 0 min 0 min 0,0 UV-I 0 W/m 10,5 km/h (2 Bft)
25.06.2014 02:06 13,7 C 12,8 C 85 % 1015,6 hPa 0,0 l/m 0 min 0 min 0,0 UV-I 0 W/m 10,5 km/h (2 Bft)
25.06.2014 02:08 13,7 C 12,8 C 85 % 1015,5 hPa 0,0 l/m 0 min 0 min 0,0 UV-I 0 W/m 0,0 km/h (0 Bft)
25.06.2014 02:10 13,7 C 12,8 C 85 % 1015,6 hPa 0,0 l/m 0 min 0 min 0,0 UV-I 0 W/m 8,4 km/h (2 Bft)
25.06.2014 02:12 13,6 C 12,8 C 85 % 1015,6 hPa 0,0 l/m 0 min 0 min 0,0 UV-I 0 W/m 8,4 km/h (2 Bft)
25.06.2014 02:14 13,6 C 12,8 C 85 % 1015,6 hPa 0,0 l/m 0 min 0 min 0,0 UV-I 0 W/m 12,6 km/h (3 Bft)
25.06.2014 02:16 13,6 C 12,8 C 85 % 1015,6 hPa 0,0 l/m 0 min 0 min 0,0 UV-I 0 W/m 10,5 km/h (2 Bft)
25.06.2014 02:18 13,6 C 12,8 C 85 % 1015,7 hPa 0,0 l/m 0 min 0 min 0,0 UV-I 0 W/m 12,6 km/h (3 Bft)
25.06.2014 02:20 13,6 C 12,8 C 85 % 1015,6 hPa 0,0 l/m 0 min 0 min 0,0 UV-I 0 W/m 10,5 km/h (2 Bft)
25.06.2014 02:22 13,6 C 12,8 C 85 % 1015,7 hPa 0,0 l/m 0 min 0 min 0,0 UV-I 0 W/m 8,4 km/h (2 Bft)
25.06.2014 02:24 13,5 C 12,8 C 85 % 1015,6 hPa 0,0 l/m 0 min 0 min 0,0 UV-I 0 W/m 8,4 km/h (2 Bft)
25.06.2014 02:26 13,5 C 12,8 C 85 % 1015,6 hPa 0,0 l/m 0 min 0 min 0,0 UV-I 0 W/m 2,1 km/h (1 Bft)
25.06.2014 02:28 13,5 C 12,8 C 85 % 1015,6 hPa 0,0 l/m 0 min 0 min 0,0 UV-I 0 W/m 14,6 km/h (3 Bft)
25.06.2014 02:30 13,4 C 12,8 C 85 % 1015,6 hPa 0,0 l/m 0 min 0 min 0,0 UV-I 0 W/m 10,5 km/h (2 Bft)
25.06.2014 02:32 13,4 C 12,8 C 85 % 1015,6 hPa 0,0 l/m 0 min 0 min 0,0 UV-I 0 W/m 8,4 km/h (2 Bft)
25.06.2014 02:34 13,4 C 12,8 C 85 % 1015,7 hPa 0,0 l/m 0 min 0 min 0,0 UV-I 0 W/m 8,4 km/h (2 Bft)
25.06.2014 02:36 13,4 C 12,8 C 85 % 1015,6 hPa 0,0 l/m 0 min 0 min 0,0 UV-I 0 W/m 25,1 km/h (4 Bft)
25.06.2014 02:38 13,4 C 12,2 C 85 % 1015,7 hPa 0,0 l/m 0 min 0 min 0,0 UV-I 0 W/m 18,8 km/h (3 Bft)
25.06.2014 02:40 13,4 C 12,2 C 84 % 1015,6 hPa 0,0 l/m 0 min 0 min 0,0 UV-I 0 W/m 14,6 km/h (3 Bft)
25.06.2014 02:42 13,3 C 12,2 C 84 % 1015,5 hPa 0,0 l/m 0 min 0 min 0,0 UV-I 0 W/m 14,6 km/h (3 Bft)
25.06.2014 02:44 13,3 C 12,2 C 84 % 1015,6 hPa 0,0 l/m 0 min 0 min 0,0 UV-I 0 W/m 16,7 km/h (3 Bft)
25.06.2014 02:46 13,3 C 12,2 C 84 % 1015,6 hPa 0,0 l/m 0 min 0 min 0,0 UV-I 0 W/m 18,8 km/h (3 Bft)
25.06.2014 02:48 13,3 C 12,2 C 84 % 1015,6 hPa 0,0 l/m 0 min 0 min 0,0 UV-I 0 W/m 16,7 km/h (3 Bft)
25.06.2014 02:50 13,3 C 12,2 C 85 % 1015,6 hPa 0,0 l/m 0 min 0 min 0,0 UV-I 0 W/m 14,6 km/h (3 Bft)
25.06.2014 02:52 13,2 C 12,2 C 85 % 1015,5 hPa 0,0 l/m 0 min 0 min 0,0 UV-I 0 W/m 12,6 km/h (3 Bft)
25.06.2014 02:54 13,2 C 12,2 C 85 % 1015,6 hPa 0,0 l/m 0 min 0 min 0,0 UV-I 0 W/m 16,7 km/h (3 Bft)
25.06.2014 02:56 13,2 C 12,2 C 85 % 1015,6 hPa 0,0 l/m 0 min 0 min 0,0 UV-I 0 W/m 12,6 km/h (3 Bft)
25.06.2014 02:58 13,2 C 12,2 C 85 % 1015,6 hPa 0,0 l/m 0 min 0 min 0,0 UV-I 0 W/m 12,6 km/h (3 Bft)
25.06.2014 03:00 13,2 C 12,2 C 86 % 1015,6 hPa 0,0 l/m 0 min 0 min 0,0 UV-I 0 W/m 14,6 km/h (3 Bft)
25.06.2014 03:02 13,2 C 12,2 C 86 % 1015,6 hPa 0,0 l/m 0 min 0 min 0,0 UV-I 0 W/m 10,5 km/h (2 Bft)
25.06.2014 03:04 13,2 C 12,2 C 86 % 1015,5 hPa 0,0 l/m 0 min 0 min 0,0 UV-I 0 W/m 12,6 km/h (3 Bft)
25.06.2014 03:06 13,1 C 12,2 C 86 % 1015,4 hPa 0,0 l/m 0 min 0 min 0,0 UV-I 0 W/m 10,5 km/h (2 Bft)
25.06.2014 03:08 13,1 C 12,2 C 86 % 1015,4 hPa 0,0 l/m 0 min 0 min 0,0 UV-I 0 W/m 8,4 km/h (2 Bft)
25.06.2014 03:10 13,1 C 12,2 C 86 % 1015,5 hPa 0,0 l/m 0 min 0 min 0,0 UV-I 0 W/m 8,4 km/h (2 Bft)
25.06.2014 03:12 13,1 C 12,2 C 86 % 1015,5 hPa 0,0 l/m 0 min 0 min 0,0 UV-I 0 W/m 12,6 km/h (3 Bft)
25.06.2014 03:14 13,1 C 12,2 C 87 % 1015,5 hPa 0,0 l/m 0 min 0 min 0,0 UV-I 0 W/m 10,5 km/h (2 Bft)
25.06.2014 03:16 13,0 C 12,2 C 87 % 1015,5 hPa 0,0 l/m 0 min 0 min 0,0 UV-I 0 W/m 10,5 km/h (2 Bft)
25.06.2014 03:18 13,0 C 12,2 C 87 % 1015,5 hPa 0,0 l/m 0 min 0 min 0,0 UV-I 0 W/m 14,6 km/h (3 Bft)
25.06.2014 03:20 13,0 C 12,2 C 87 % 1015,5 hPa 0,0 l/m 0 min 0 min 0,0 UV-I 0 W/m 8,4 km/h (2 Bft)
25.06.2014 03:22 12,9 C 12,2 C 87 % 1015,4 hPa 0,0 l/m 0 min 0 min 0,0 UV-I 0 W/m 14,6 km/h (3 Bft)
25.06.2014 03:24 12,9 C 12,2 C 87 % 1015,4 hPa 0,0 l/m 0 min 0 min 0,0 UV-I 0 W/m 12,6 km/h (3 Bft)
25.06.2014 03:26 12,9 C 12,2 C 87 % 1015,4 hPa 0,0 l/m 0 min 0 min 0,0 UV-I 0 W/m 0,0 km/h (0 Bft)
25.06.2014 03:28 12,9 C 12,2 C 87 % 1015,4 hPa 0,0 l/m 0 min 0 min 0,0 UV-I 0 W/m 0,0 km/h (0 Bft)
25.06.2014 03:30 12,9 C 12,2 C 87 % 1015,4 hPa 0,0 l/m 0 min 0 min 0,0 UV-I 0 W/m 8,4 km/h (2 Bft)
25.06.2014 03:32 12,8 C 12,2 C 87 % 1015,4 hPa 0,0 l/m 0 min 0 min 0,0 UV-I 0 W/m 10,5 km/h (2 Bft)
25.06.2014 03:34 12,8 C 12,2 C 87 % 1015,4 hPa 0,0 l/m 0 min 0 min 0,0 UV-I 0 W/m 6,3 km/h (2 Bft)
25.06.2014 03:36 12,8 C 12,2 C 88 % 1015,4 hPa 0,0 l/m 0 min 0 min 0,0 UV-I 0 W/m 8,4 km/h (2 Bft)
25.06.2014 03:38 12,8 C 11,7 C 88 % 1015,4 hPa 0,0 l/m 0 min 0 min 0,0 UV-I 0 W/m 8,4 km/h (2 Bft)
25.06.2014 03:40 12,7 C 11,7 C 88 % 1015,4 hPa 0,0 l/m 0 min 0 min 0,0 UV-I 0 W/m 8,4 km/h (2 Bft)
25.06.2014 03:42 12,7 C 11,7 C 88 % 1015,4 hPa 0,0 l/m 0 min 0 min 0,0 UV-I 0 W/m 8,4 km/h (2 Bft)
25.06.2014 03:44 12,7 C 11,7 C 88 % 1015,4 hPa 0,0 l/m 0 min 0 min 0,0 UV-I 0 W/m 8,4 km/h (2 Bft)
25.06.2014 03:46 12,6 C 11,7 C 88 % 1015,3 hPa 0,0 l/m 0 min 0 min 0,0 UV-I 0 W/m 8,4 km/h (2 Bft)
25.06.2014 03:48 12,6 C 11,7 C 88 % 1015,3 hPa 0,0 l/m 0 min 0 min 0,0 UV-I 0 W/m 0,0 km/h (0 Bft)
25.06.2014 03:50 12,5 C 11,7 C 88 % 1015,3 hPa 0,0 l/m 0 min 0 min 0,0 UV-I 0 W/m 6,3 km/h (2 Bft)
25.06.2014 03:52 12,4 C 11,7 C 88 % 1015,3 hPa 0,0 l/m 0 min 0 min 0,0 UV-I 0 W/m 6,3 km/h (2 Bft)
25.06.2014 03:54 12,4 C 11,7 C 88 % 1015,2 hPa 0,0 l/m 0 min 0 min 0,0 UV-I 0 W/m 8,4 km/h (2 Bft)
25.06.2014 03:56 12,4 C 11,7 C 89 % 1015,2 hPa 0,0 l/m 0 min 0 min 0,0 UV-I 0 W/m 4,2 km/h (1 Bft)
25.06.2014 03:58 12,3 C 11,7 C 88 % 1015,2 hPa 0,0 l/m 0 min 0 min 0,0 UV-I 0 W/m 2,1 km/h (1 Bft)
25.06.2014 04:00 12,2 C 11,1 C 89 % 1015,2 hPa 0,0 l/m 0 min 0 min 0,0 UV-I 0 W/m 10,5 km/h (2 Bft)
25.06.2014 04:02 12,2 C 11,1 C 89 % 1015,1 hPa 0,0 l/m 0 min 0 min 0,0 UV-I 0 W/m 6,3 km/h (2 Bft)
25.06.2014 04:04 12,1 C 11,1 C 89 % 1015,2 hPa 0,0 l/m 0 min 0 min 0,0 UV-I 0 W/m 10,5 km/h (2 Bft)
25.06.2014 04:06 12,1 C 11,1 C 89 % 1015,1 hPa 0,0 l/m 0 min 0 min 0,0 UV-I 0 W/m 6,3 km/h (2 Bft)
25.06.2014 04:08 12,0 C 11,1 C 89 % 1015,0 hPa 0,0 l/m 0 min 0 min 0,0 UV-I 0 W/m 10,5 km/h (2 Bft)
25.06.2014 04:10 11,9 C 11,1 C 89 % 1015,0 hPa 0,0 l/m 0 min 0 min 0,0 UV-I 0 W/m 6,3 km/h (2 Bft)
25.06.2014 04:12 11,9 C 11,1 C 89 % 1015,0 hPa 0,0 l/m 0 min 0 min 0,0 UV-I 0 W/m 8,4 km/h (2 Bft)
25.06.2014 04:14 11,8 C 10,6 C 89 % 1015,0 hPa 0,0 l/m 0 min 0 min 0,0 UV-I 0 W/m 6,3 km/h (2 Bft)
25.06.2014 04:16 11,7 C 10,6 C 90 % 1015,1 hPa 0,0 l/m 0 min 0 min 0,0 UV-I 0 W/m 8,4 km/h (2 Bft)
25.06.2014 04:18 11,7 C 10,6 C 89 % 1015,1 hPa 0,0 l/m 0 min 0 min 0,0 UV-I 0 W/m 10,5 km/h (2 Bft)
25.06.2014 04:20 11,7 C 10,6 C 90 % 1015,1 hPa 0,0 l/m 0 min 0 min 0,0 UV-I 0 W/m 12,6 km/h (3 Bft)
25.06.2014 04:22 11,6 C 10,6 C 90 % 1015,1 hPa 0,0 l/m 0 min 0 min 0,0 UV-I 0 W/m 6,3 km/h (2 Bft)
25.06.2014 04:24 11,5 C 10,6 C 90 % 1015,0 hPa 0,0 l/m 0 min 0 min 0,0 UV-I 0 W/m 8,4 km/h (2 Bft)
25.06.2014 04:26 11,5 C 10,6 C 90 % 1015,1 hPa 0,0 l/m 0 min 0 min 0,0 UV-I 0 W/m 6,3 km/h (2 Bft)
25.06.2014 04:28 11,4 C 10,6 C 90 % 1015,0 hPa 0,0 l/m 0 min 0 min 0,0 UV-I 0 W/m 10,5 km/h (2 Bft)
25.06.2014 04:30 11,4 C 10,6 C 90 % 1015,0 hPa 0,0 l/m 0 min 0 min 0,0 UV-I 0 W/m 8,4 km/h (2 Bft)
25.06.2014 04:32 11,3 C 10,6 C 90 % 1015,0 hPa 0,0 l/m 0 min 0 min 0,0 UV-I 0 W/m 8,4 km/h (2 Bft)
25.06.2014 04:34 11,3 C 10,6 C 90 % 1015,0 hPa 0,0 l/m 0 min 0 min 0,0 UV-I 0 W/m 6,3 km/h (2 Bft)
25.06.2014 04:36 11,2 C 10,0 C 90 % 1015,0 hPa 0,0 l/m 0 min 0 min 0,0 UV-I 0 W/m 6,3 km/h (2 Bft)
25.06.2014 04:38 11,2 C 10,0 C 90 % 1015,0 hPa 0,0 l/m 0 min 0 min 0,0 UV-I 0 W/m 2,1 km/h (1 Bft)
25.06.2014 04:40 11,2 C 10,0 C 91 % 1015,0 hPa 0,0 l/m 0 min 0 min 0,0 UV-I 0 W/m 2,1 km/h (1 Bft)
25.06.2014 04:42 11,1 C 10,0 C 91 % 1015,0 hPa 0,0 l/m 0 min 0 min 0,0 UV-I 0 W/m 0,0 km/h (0 Bft)
25.06.2014 04:44 11,0 C 10,0 C 91 % 1014,9 hPa 0,0 l/m 0 min 0 min 0,0 UV-I 0 W/m 6,3 km/h (2 Bft)
25.06.2014 04:46 10,9 C 10,0 C 91 % 1015,0 hPa 0,0 l/m 0 min 0 min 0,0 UV-I 0 W/m 8,4 km/h (2 Bft)
25.06.2014 04:48 10,9 C 10,0 C 91 % 1015,0 hPa 0,0 l/m 0 min 0 min 0,0 UV-I 0 W/m 8,4 km/h (2 Bft)
25.06.2014 04:50 10,8 C 10,0 C 91 % 1015,0 hPa 0,0 l/m 0 min 0 min 0,0 UV-I 0 W/m 6,3 km/h (2 Bft)
25.06.2014 04:52 10,8 C 10,0 C 91 % 1015,0 hPa 0,0 l/m 0 min 0 min 0,0 UV-I 0 W/m 8,4 km/h (2 Bft)
25.06.2014 04:54 10,8 C 10,0 C 91 % 1015,1 hPa 0,0 l/m 0 min 0 min 0,0 UV-I 0 W/m 6,3 km/h (2 Bft)
25.06.2014 04:56 10,7 C 10,0 C 92 % 1015,0 hPa 0,0 l/m 0 min 0 min 0,0 UV-I 0 W/m 4,2 km/h (1 Bft)
25.06.2014 04:58 10,7 C 10,0 C 92 % 1015,0 hPa 0,0 l/m 0 min 0 min 0,0 UV-I 0 W/m 6,3 km/h (2 Bft)
25.06.2014 05:00 10,6 C 9,4 C 92 % 1015,0 hPa 0,0 l/m 0 min 0 min 0,0 UV-I 0 W/m 8,4 km/h (2 Bft)
25.06.2014 05:02 10,6 C 9,4 C 92 % 1015,0 hPa 0,0 l/m 0 min 0 min 0,0 UV-I 0 W/m 6,3 km/h (2 Bft)
25.06.2014 05:04 10,6 C 9,4 C 95 % 1015,1 hPa 0,0 l/m 0 min 0 min 0,0 UV-I 0 W/m 10,5 km/h (2 Bft)
25.06.2014 05:06 10,5 C 9,4 C 92 % 1015,0 hPa 0,0 l/m 0 min 0 min 0,0 UV-I 0 W/m 0,0 km/h (0 Bft)
25.06.2014 05:08 10,5 C 9,4 C 92 % 1015,0 hPa 0,0 l/m 0 min 0 min 0,0 UV-I 0 W/m 8,4 km/h (2 Bft)
25.06.2014 05:10 10,4 C 9,4 C 92 % 1015,0 hPa 0,0 l/m 0 min 0 min 0,0 UV-I 0 W/m 10,5 km/h (2 Bft)
25.06.2014 05:12 10,4 C 9,4 C 92 % 1015,1 hPa 0,0 l/m 0 min 0 min 0,0 UV-I 6 W/m 6,3 km/h (2 Bft)
25.06.2014 05:14 10,4 C 9,4 C 92 % 1015,1 hPa 0,0 l/m 0 min 0 min 0,0 UV-I 6 W/m 2,1 km/h (1 Bft)
25.06.2014 05:16 10,4 C 9,4 C 92 % 1015,1 hPa 0,0 l/m 0 min 0 min 0,0 UV-I 6 W/m 2,1 km/h (1 Bft)
25.06.2014 05:18 10,3 C 9,4 C 93 % 1015,1 hPa 0,0 l/m 0 min 0 min 0,0 UV-I 6 W/m 10,5 km/h (2 Bft)
25.06.2014 05:20 10,3 C 9,4 C 93 % 1015,2 hPa 0,0 l/m 0 min 0 min 0,0 UV-I 9 W/m 8,4 km/h (2 Bft)
25.06.2014 05:22 10,3 C 9,4 C 93 % 1015,2 hPa 0,0 l/m 0 min 0 min 0,0 UV-I 9 W/m 8,4 km/h (2 Bft)
25.06.2014 05:24 10,3 C 9,4 C 93 % 1015,1 hPa 0,0 l/m 0 min 0 min 0,0 UV-I 9 W/m 8,4 km/h (2 Bft)
25.06.2014 05:26 10,3 C 9,4 C 93 % 1015,1 hPa 0,0 l/m 0 min 0 min 0,0 UV-I 12 W/m 10,5 km/h (2 Bft)
25.06.2014 05:28 10,3 C 9,4 C 93 % 1015,2 hPa 0,0 l/m 0 min 0 min 0,0 UV-I 12 W/m 8,4 km/h (2 Bft)
25.06.2014 05:30 10,2 C 9,4 C 93 % 1015,2 hPa 0,0 l/m 0 min 0 min 0,0 UV-I 12 W/m 8,4 km/h (2 Bft)
25.06.2014 05:32 10,2 C 9,4 C 93 % 1015,3 hPa 0,0 l/m 0 min 0 min 0,0 UV-I 14 W/m 10,5 km/h (2 Bft)
25.06.2014 05:34 10,2 C 9,4 C 93 % 1015,2 hPa 0,0 l/m 2 min 0 min 0,0 UV-I 15 W/m 8,4 km/h (2 Bft)
25.06.2014 05:36 10,1 C 9,4 C 93 % 1015,1 hPa 0,0 l/m 2 min 0 min 0,0 UV-I 23 W/m 12,6 km/h (3 Bft)
25.06.2014 05:38 10,1 C 9,4 C 93 % 1015,2 hPa 0,0 l/m 2 min 0 min 0,0 UV-I 29 W/m 2,1 km/h (1 Bft)
25.06.2014 05:40 10,1 C 9,4 C 93 % 1015,1 hPa 0,0 l/m 2 min 0 min 0,0 UV-I 33 W/m 0,0 km/h (0 Bft)
25.06.2014 05:42 10,1 C 9,4 C 93 % 1015,3 hPa 0,0 l/m 2 min 0 min 0,0 UV-I 36 W/m 0,0 km/h (0 Bft)
25.06.2014 05:44 10,1 C 9,4 C 93 % 1015,2 hPa 0,0 l/m 2 min 0 min 0,0 UV-I 42 W/m 0,0 km/h (0 Bft)
25.06.2014 05:46 10,0 C 9,4 C 93 % 1015,2 hPa 0,0 l/m 2 min 0 min 0,0 UV-I 47 W/m 0,0 km/h (0 Bft)
25.06.2014 05:48 10,0 C 9,4 C 94 % 1015,3 hPa 0,0 l/m 2 min 0 min 0,0 UV-I 51 W/m 0,0 km/h (0 Bft)
25.06.2014 05:50 9,9 C 9,4 C 94 % 1015,3 hPa 0,0 l/m 2 min 0 min 0,0 UV-I 59 W/m 0,0 km/h (0 Bft)
25.06.2014 05:52 9,9 C 8,9 C 94 % 1015,3 hPa 0,0 l/m 2 min 0 min 0,0 UV-I 63 W/m 0,0 km/h (0 Bft)
25.06.2014 05:54 9,9 C 8,9 C 94 % 1015,3 hPa 0,0 l/m 2 min 0 min 0,0 UV-I 68 W/m 0,0 km/h (0 Bft)
25.06.2014 05:56 9,9 C 8,9 C 94 % 1015,3 hPa 0,0 l/m 2 min 0 min 0,0 UV-I 72 W/m 0,0 km/h (0 Bft)
25.06.2014 05:58 9,9 C 8,9 C 94 % 1015,2 hPa 0,0 l/m 2 min 0 min 0,0 UV-I 79 W/m 0,0 km/h (0 Bft)
25.06.2014 06:00 9,9 C 8,9 C 94 % 1015,2 hPa 0,0 l/m 2 min 0 min 0,0 UV-I 83 W/m 0,0 km/h (0 Bft)
25.06.2014 06:02 9,9 C 8,9 C 94 % 1015,2 hPa 0,0 l/m 2 min 0 min 0,0 UV-I 88 W/m 0,0 km/h (0 Bft)
25.06.2014 06:06 9,9 C 8,9 C 94 % 1015,2 hPa 0,0 l/m 2 min 0 min 0,0 UV-I 97 W/m 0,0 km/h (0 Bft)
25.06.2014 06:08 9,9 C 9,4 C 95 % 1015,2 hPa 0,0 l/m 2 min 0 min 0,0 UV-I 104 W/m 0,0 km/h (0 Bft)
25.06.2014 06:10 10,0 C 9,4 C 95 % 1015,3 hPa 0,0 l/m 2 min 0 min 0,0 UV-I 108 W/m 2,1 km/h (1 Bft)
25.06.2014 06:12 10,0 C 9,4 C 95 % 1015,3 hPa 0,0 l/m 2 min 0 min 0,0 UV-I 113 W/m 0,0 km/h (0 Bft)
25.06.2014 06:14 10,0 C 9,4 C 95 % 1015,3 hPa 0,0 l/m 2 min 0 min 0,0 UV-I 117 W/m 2,1 km/h (1 Bft)
25.06.2014 06:16 10,1 C 9,4 C 95 % 1015,3 hPa 0,0 l/m 2 min 0 min 0,0 UV-I 122 W/m 6,3 km/h (2 Bft)
25.06.2014 06:18 10,1 C 9,4 C 95 % 1015,3 hPa 0,0 l/m 2 min 0 min 0,0 UV-I 128 W/m 8,4 km/h (2 Bft)
25.06.2014 06:20 10,1 C 9,4 C 95 % 1015,3 hPa 0,0 l/m 2 min 0 min 0,0 UV-I 133 W/m 8,4 km/h (2 Bft)
25.06.2014 06:22 10,1 C 9,4 C 95 % 1015,3 hPa 0,0 l/m 2 min 0 min 0,0 UV-I 137 W/m 6,3 km/h (2 Bft)
25.06.2014 06:24 10,2 C 9,4 C 95 % 1015,4 hPa 0,0 l/m 2 min 0 min 0,0 UV-I 145 W/m 8,4 km/h (2 Bft)
25.06.2014 06:26 10,2 C 9,4 C 95 % 1015,4 hPa 0,0 l/m 2 min 0 min 0,0 UV-I 149 W/m 6,3 km/h (2 Bft)
25.06.2014 06:28 10,2 C 9,4 C 95 % 1015,4 hPa 0,0 l/m 2 min 0 min 0,0 UV-I 154 W/m 8,4 km/h (2 Bft)
25.06.2014 06:30 10,2 C 9,4 C 95 % 1015,4 hPa 0,0 l/m 2 min 0 min 0,0 UV-I 163 W/m 0,0 km/h (0 Bft)
25.06.2014 06:32 10,3 C 9,4 C 95 % 1015,5 hPa 0,0 l/m 2 min 0 min 0,0 UV-I 155 W/m 8,4 km/h (2 Bft)
25.06.2014 06:34 10,3 C 9,4 C 95 % 1015,5 hPa 0,0 l/m 2 min 0 min 0,0 UV-I 172 W/m 0,0 km/h (0 Bft)
25.06.2014 06:36 10,3 C 9,4 C 95 % 1015,6 hPa 0,0 l/m 2 min 0 min 0,0 UV-I 178 W/m 8,4 km/h (2 Bft)
25.06.2014 06:38 10,4 C 9,4 C 95 % 1015,6 hPa 0,0 l/m 2 min 0 min 0,0 UV-I 184 W/m 6,3 km/h (2 Bft)
25.06.2014 06:40 10,4 C 10,0 C 95 % 1015,5 hPa 0,0 l/m 2 min 0 min 0,0 UV-I 190 W/m 6,3 km/h (2 Bft)
25.06.2014 06:42 10,4 C 10,0 C 95 % 1015,5 hPa 0,0 l/m 2 min 0 min 0,0 UV-I 202 W/m 8,4 km/h (2 Bft)
25.06.2014 06:44 10,5 C 10,0 C 95 % 1015,5 hPa 0,0 l/m 2 min 0 min 0,0 UV-I 209 W/m 6,3 km/h (2 Bft)
25.06.2014 06:46 10,5 C 10,0 C 95 % 1015,5 hPa 0,0 l/m 2 min 0 min 0,0 UV-I 211 W/m 6,3 km/h (2 Bft)
25.06.2014 06:48 10,6 C 10,0 C 95 % 1015,5 hPa 0,0 l/m 2 min 0 min 0,0 UV-I 173 W/m 10,5 km/h (2 Bft)
25.06.2014 06:50 10,6 C 10,0 C 95 % 1015,6 hPa 0,0 l/m 2 min 0 min 0,0 UV-I 216 W/m 10,5 km/h (2 Bft)
25.06.2014 06:52 10,6 C 10,0 C 95 % 1015,5 hPa 0,0 l/m 2 min 0 min 0,0 UV-I 229 W/m 8,4 km/h (2 Bft)
25.06.2014 06:54 10,6 C 10,0 C 95 % 1015,6 hPa 0,0 l/m 2 min 0 min 0,0 UV-I 246 W/m 12,6 km/h (3 Bft)
25.06.2014 06:56 10,7 C 10,0 C 95 % 1015,6 hPa 0,0 l/m 2 min 0 min 0,0 UV-I 247 W/m 6,3 km/h (2 Bft)
25.06.2014 06:58 10,7 C 10,0 C 95 % 1015,6 hPa 0,0 l/m 2 min 0 min 0,0 UV-I 252 W/m 8,4 km/h (2 Bft)
25.06.2014 07:00 10,7 C 10,0 C 95 % 1015,5 hPa 0,0 l/m 2 min 0 min 0,0 UV-I 259 W/m 6,3 km/h (2 Bft)
25.06.2014 07:02 10,8 C 10,0 C 95 % 1015,5 hPa 0,0 l/m 2 min 0 min 0,0 UV-I 265 W/m 10,5 km/h (2 Bft)
25.06.2014 07:04 10,8 C 10,0 C 95 % 1015,5 hPa 0,0 l/m 2 min 0 min 0,0 UV-I 273 W/m 10,5 km/h (2 Bft)
25.06.2014 07:06 10,8 C 10,0 C 95 % 1015,5 hPa 0,0 l/m 2 min 0 min 0,0 UV-I 282 W/m 8,4 km/h (2 Bft)
25.06.2014 07:08 10,8 C 10,0 C 94 % 1015,5 hPa 0,0 l/m 2 min 0 min 0,0 UV-I 291 W/m 6,3 km/h (2 Bft)
25.06.2014 07:10 10,8 C 10,0 C 94 % 1015,5 hPa 0,0 l/m 2 min 0 min 0,0 UV-I 293 W/m 2,1 km/h (1 Bft)
25.06.2014 07:12 10,8 C 10,0 C 94 % 1015,5 hPa 0,0 l/m 2 min 0 min 0,0 UV-I 302 W/m 4,2 km/h (1 Bft)
25.06.2014 07:14 10,9 C 10,6 C 94 % 1015,4 hPa 0,0 l/m 2 min 0 min 0,0 UV-I 309 W/m 8,4 km/h (2 Bft)
25.06.2014 07:16 10,9 C 10,6 C 94 % 1015,4 hPa 0,0 l/m 2 min 0 min 0,0 UV-I 315 W/m 8,4 km/h (2 Bft)
25.06.2014 07:18 11,0 C 10,6 C 94 % 1015,4 hPa 0,0 l/m 2 min 0 min 0,0 UV-I 324 W/m 10,5 km/h (2 Bft)
25.06.2014 07:20 11,1 C 10,6 C 94 % 1015,4 hPa 0,0 l/m 2 min 0 min 0,0 UV-I 327 W/m 10,5 km/h (2 Bft)
25.06.2014 07:22 11,1 C 10,6 C 94 % 1015,4 hPa 0,0 l/m 2 min 0 min 0,0 UV-I 330 W/m 10,5 km/h (2 Bft)
25.06.2014 07:24 11,2 C 10,6 C 94 % 1015,4 hPa 0,0 l/m 2 min 0 min 0,0 UV-I 348 W/m 2,1 km/h (1 Bft)
25.06.2014 07:26 11,2 C 10,6 C 94 % 1015,5 hPa 0,0 l/m 2 min 0 min 0,0 UV-I 348 W/m 12,6 km/h (3 Bft)
25.06.2014 07:28 11,2 C 10,6 C 94 % 1015,4 hPa 0,0 l/m 2 min 0 min 0,0 UV-I 356 W/m 6,3 km/h (2 Bft)
25.06.2014 07:30 11,3 C 10,6 C 94 % 1015,4 hPa 0,0 l/m 2 min 0 min 0,0 UV-I 354 W/m 8,4 km/h (2 Bft)
25.06.2014 07:32 11,3 C 10,6 C 93 % 1015,4 hPa 0,0 l/m 2 min 0 min 0,0 UV-I 369 W/m 10,5 km/h (2 Bft)
25.06.2014 07:34 11,4 C 10,6 C 93 % 1015,4 hPa 0,0 l/m 2 min 0 min 0,0 UV-I 360 W/m 8,4 km/h (2 Bft)
25.06.2014 07:36 11,5 C 10,6 C 93 % 1015,5 hPa 0,0 l/m 2 min 0 min 0,0 UV-I 404 W/m 6,3 km/h (2 Bft)
25.06.2014 07:38 11,6 C 10,6 C 93 % 1015,5 hPa 0,0 l/m 2 min 0 min 0,0 UV-I 351 W/m 8,4 km/h (2 Bft)
25.06.2014 07:40 11,6 C 11,1 C 93 % 1015,5 hPa 0,0 l/m 2 min 0 min 0,0 UV-I 419 W/m 8,4 km/h (2 Bft)
25.06.2014 07:42 11,7 C 11,1 C 92 % 1015,4 hPa 0,0 l/m 2 min 0 min 0,0 UV-I 416 W/m 10,5 km/h (2 Bft)
25.06.2014 07:44 11,8 C 11,1 C 92 % 1015,4 hPa 0,0 l/m 2 min 0 min 0,0 UV-I 421 W/m 14,6 km/h (3 Bft)
25.06.2014 07:46 11,8 C 11,1 C 92 % 1015,5 hPa 0,0 l/m 2 min 0 min 0,0 UV-I 455 W/m 16,7 km/h (3 Bft)
25.06.2014 07:48 11,8 C 11,1 C 91 % 1015,4 hPa 0,0 l/m 2 min 0 min 0,0 UV-I 464 W/m 16,7 km/h (3 Bft)
25.06.2014 07:50 11,9 C 11,1 C 91 % 1015,4 hPa 0,0 l/m 2 min 0 min 0,0 UV-I 455 W/m 14,6 km/h (3 Bft)
25.06.2014 07:52 11,9 C 11,1 C 91 % 1015,4 hPa 0,0 l/m 2 min 0 min 0,0 UV-I 452 W/m 14,6 km/h (3 Bft)
25.06.2014 07:54 12,0 C 11,1 C 91 % 1015,4 hPa 0,0 l/m 2 min 0 min 0,0 UV-I 470 W/m 12,6 km/h (3 Bft)
25.06.2014 07:56 12,1 C 11,1 C 90 % 1015,4 hPa 0,0 l/m 2 min 0 min 0,0 UV-I 469 W/m 10,5 km/h (2 Bft)
25.06.2014 07:58 12,2 C 11,7 C 90 % 1015,4 hPa 0,0 l/m 2 min 0 min 0,0 UV-I 443 W/m 0,0 km/h (0 Bft)
25.06.2014 08:00 12,3 C 11,7 C 90 % 1015,4 hPa 0,0 l/m 2 min 0 min 0,0 UV-I 443 W/m 12,6 km/h (3 Bft)
25.06.2014 08:02 12,3 C 11,7 C 89 % 1015,5 hPa 0,0 l/m 2 min 0 min 0,0 UV-I 464 W/m 10,5 km/h (2 Bft)
25.06.2014 08:04 12,3 C 11,7 C 89 % 1015,5 hPa 0,0 l/m 2 min 0 min 0,0 UV-I 525 W/m 12,6 km/h (3 Bft)
25.06.2014 08:06 12,4 C 11,7 C 89 % 1015,5 hPa 0,0 l/m 2 min 0 min 0,0 UV-I 526 W/m 16,7 km/h (3 Bft)
25.06.2014 08:08 12,5 C 11,7 C 88 % 1015,4 hPa 0,0 l/m 0 min 0 min 0,0 UV-I 151 W/m 14,6 km/h (3 Bft)
25.06.2014 08:10 12,5 C 11,7 C 88 % 1015,5 hPa 0,0 l/m 2 min 0 min 0,0 UV-I 535 W/m 18,8 km/h (3 Bft)
25.06.2014 08:12 12,5 C 11,7 C 87 % 1015,4 hPa 0,0 l/m 2 min 0 min 0,0 UV-I 559 W/m 14,6 km/h (3 Bft)
25.06.2014 08:14 12,6 C 11,7 C 87 % 1015,5 hPa 0,0 l/m 2 min 0 min 0,0 UV-I 547 W/m 16,7 km/h (3 Bft)
25.06.2014 08:16 12,7 C 11,7 C 87 % 1015,5 hPa 0,0 l/m 2 min 0 min 0,0 UV-I 543 W/m 8,4 km/h (2 Bft)
25.06.2014 08:18 12,8 C 11,7 C 88 % 1015,6 hPa 0,0 l/m 2 min 0 min 0,0 UV-I 591 W/m 14,6 km/h (3 Bft)
25.06.2014 08:20 12,8 C 11,7 C 86 % 1015,6 hPa 0,0 l/m 2 min 0 min 0,0 UV-I 585 W/m 18,8 km/h (3 Bft)
25.06.2014 08:22 12,9 C 12,2 C 86 % 1015,6 hPa 0,0 l/m 2 min 0 min 0,0 UV-I 669 W/m 12,6 km/h (3 Bft)
25.06.2014 08:24 12,9 C 12,2 C 86 % 1015,6 hPa 0,0 l/m 2 min 0 min 0,0 UV-I 576 W/m 14,6 km/h (3 Bft)
25.06.2014 08:26 13,0 C 12,2 C 85 % 1015,6 hPa 0,0 l/m 2 min 0 min 0,0 UV-I 710 W/m 16,7 km/h (3 Bft)
25.06.2014 08:28 13,0 C 12,2 C 85 % 1015,7 hPa 0,0 l/m 2 min 0 min 0,0 UV-I 410 W/m 16,7 km/h (3 Bft)
25.06.2014 08:30 13,1 C 12,2 C 85 % 1015,7 hPa 0,0 l/m 2 min 0 min 0,0 UV-I 302 W/m 16,7 km/h (3 Bft)
25.06.2014 08:32 13,1 C 12,2 C 85 % 1015,7 hPa 0,0 l/m 2 min 0 min 0,0 UV-I 330 W/m 20,9 km/h (4 Bft)
25.06.2014 08:34 13,1 C 12,2 C 84 % 1015,7 hPa 0,0 l/m 2 min 0 min 0,0 UV-I 252 W/m 18,8 km/h (3 Bft)
25.06.2014 08:36 13,1 C 12,2 C 84 % 1015,7 hPa 0,0 l/m 2 min 0 min 0,0 UV-I 304 W/m 14,6 km/h (3 Bft)
25.06.2014 08:38 13,0 C 12,2 C 84 % 1015,8 hPa 0,0 l/m 0 min 0 min 0,0 UV-I 246 W/m 18,8 km/h (3 Bft)
25.06.2014 08:40 12,9 C 12,2 C 84 % 1015,7 hPa 0,0 l/m 0 min 0 min 0,0 UV-I 219 W/m 20,9 km/h (4 Bft)
25.06.2014 08:42 12,9 C 12,2 C 85 % 1015,7 hPa 0,0 l/m 0 min 0 min 0,0 UV-I 232 W/m 16,7 km/h (3 Bft)
25.06.2014 08:44 12,9 C 12,2 C 85 % 1015,7 hPa 0,0 l/m 0 min 0 min 0,0 UV-I 237 W/m 18,8 km/h (3 Bft)
25.06.2014 08:46 12,9 C 12,2 C 85 % 1015,7 hPa 0,0 l/m 0 min 0 min 0,0 UV-I 241 W/m 16,7 km/h (3 Bft)
25.06.2014 08:48 12,8 C 12,2 C 85 % 1015,7 hPa 0,0 l/m 0 min 0 min 0,0 UV-I 250 W/m 12,6 km/h (3 Bft)
25.06.2014 08:50 12,8 C 12,8 C 85 % 1015,7 hPa 0,0 l/m 2 min 0 min 0,0 UV-I 265 W/m 16,7 km/h (3 Bft)
25.06.2014 08:52 12,8 C 12,8 C 85 % 1015,7 hPa 0,0 l/m 0 min 0 min 0,0 UV-I 234 W/m 16,7 km/h (3 Bft)
25.06.2014 08:54 12,9 C 12,8 C 85 % 1015,8 hPa 0,0 l/m 0 min 0 min 0,0 UV-I 261 W/m 12,6 km/h (3 Bft)
25.06.2014 08:56 13,0 C 12,8 C 85 % 1015,7 hPa 0,0 l/m 0 min 0 min 0,0 UV-I 270 W/m 14,6 km/h (3 Bft)
25.06.2014 08:58 13,0 C 12,8 C 85 % 1015,8 hPa 0,0 l/m 0 min 0 min 0,0 UV-I 232 W/m 12,6 km/h (3 Bft)
25.06.2014 09:00 13,1 C 12,8 C 85 % 1015,8 hPa 0,0 l/m 0 min 0 min 0,0 UV-I 246 W/m 16,7 km/h (3 Bft)
25.06.2014 09:02 13,1 C 12,8 C 84 % 1015,8 hPa 0,0 l/m 0 min 0 min 0,0 UV-I 277 W/m 14,6 km/h (3 Bft)
25.06.2014 09:04 13,2 C 13,3 C 84 % 1015,8 hPa 0,0 l/m 0 min 0 min 0,0 UV-I 256 W/m 12,6 km/h (3 Bft)
25.06.2014 09:06 13,3 C 13,3 C 84 % 1015,8 hPa 0,0 l/m 0 min 0 min 0,0 UV-I 256 W/m 12,6 km/h (3 Bft)
25.06.2014 09:08 13,3 C 13,3 C 84 % 1015,8 hPa 0,0 l/m 0 min 0 min 0,0 UV-I 256 W/m 20,9 km/h (4 Bft)
25.06.2014 09:10 13,2 C 12,8 C 83 % 1015,8 hPa 0,0 l/m 0 min 0 min 0,0 UV-I 270 W/m 12,6 km/h (3 Bft)
25.06.2014 09:12 13,2 C 13,3 C 83 % 1015,9 hPa 0,0 l/m 0 min 0 min 0,0 UV-I 256 W/m 16,7 km/h (3 Bft)
25.06.2014 09:14 13,2 C 13,3 C 83 % 1015,8 hPa 0,0 l/m 0 min 0 min 0,0 UV-I 264 W/m 8,4 km/h (2 Bft)
25.06.2014 09:16 13,3 C 13,3 C 84 % 1015,8 hPa 0,0 l/m 0 min 0 min 0,0 UV-I 264 W/m 12,6 km/h (3 Bft)
25.06.2014 09:18 13,4 C 13,3 C 83 % 1015,9 hPa 0,0 l/m 0 min 0 min 0,0 UV-I 268 W/m 16,7 km/h (3 Bft)
25.06.2014 09:20 13,4 C 13,3 C 82 % 1015,8 hPa 0,0 l/m 2 min 0 min 0,0 UV-I 320 W/m 16,7 km/h (3 Bft)
25.06.2014 09:22 13,4 C 13,3 C 82 % 1015,8 hPa 0,0 l/m 2 min 0 min 0,0 UV-I 313 W/m 14,6 km/h (3 Bft)
25.06.2014 09:24 13,5 C 13,9 C 82 % 1015,8 hPa 0,0 l/m 2 min 0 min 0,0 UV-I 315 W/m 16,7 km/h (3 Bft)
25.06.2014 09:26 13,6 C 13,9 C 82 % 1015,9 hPa 0,0 l/m 2 min 0 min 0,0 UV-I 327 W/m 18,8 km/h (3 Bft)
25.06.2014 09:28 13,6 C 13,9 C 82 % 1015,8 hPa 0,0 l/m 2 min 0 min 0,5 UV-I 347 W/m 12,6 km/h (3 Bft)
25.06.2014 09:30 13,7 C 13,9 C 83 % 1015,9 hPa 0,0 l/m 2 min 0 min 0,5 UV-I 369 W/m 16,7 km/h (3 Bft)
25.06.2014 09:32 13,9 C 13,9 C 82 % 1015,8 hPa 0,0 l/m 2 min 0 min 0,5 UV-I 378 W/m 16,7 km/h (3 Bft)
25.06.2014 09:34 13,9 C 13,9 C 80 % 1015,9 hPa 0,0 l/m 2 min 0 min 0,6 UV-I 374 W/m 14,6 km/h (3 Bft)
25.06.2014 09:36 13,9 C 13,9 C 80 % 1015,8 hPa 0,0 l/m 2 min 0 min 0,6 UV-I 369 W/m 14,6 km/h (3 Bft)
25.06.2014 09:38 13,8 C 13,9 C 80 % 1015,8 hPa 0,0 l/m 2 min 0 min 0,6 UV-I 389 W/m 8,4 km/h (2 Bft)
25.06.2014 09:40 13,9 C 13,9 C 80 % 1015,8 hPa 0,0 l/m 2 min 0 min 0,8 UV-I 428 W/m 14,6 km/h (3 Bft)
25.06.2014 09:42 14,0 C 14,4 C 79 % 1015,9 hPa 0,0 l/m 2 min 0 min 0,8 UV-I 470 W/m 16,7 km/h (3 Bft)
25.06.2014 09:44 14,1 C 14,4 C 79 % 1015,9 hPa 0,0 l/m 2 min 0 min 0,9 UV-I 484 W/m 14,6 km/h (3 Bft)
25.06.2014 09:46 14,2 C 14,4 C 78 % 1015,8 hPa 0,0 l/m 2 min 0 min 0,9 UV-I 469 W/m 10,5 km/h (2 Bft)
25.06.2014 09:48 14,2 C 14,4 C 78 % 1015,8 hPa 0,0 l/m 2 min 0 min 0,9 UV-I 497 W/m 16,7 km/h (3 Bft)
25.06.2014 09:50 14,2 C 14,4 C 77 % 1015,8 hPa 0,0 l/m 2 min 0 min 0,9 UV-I 466 W/m 12,6 km/h (3 Bft)
25.06.2014 09:52 14,3 C 14,4 C 77 % 1015,9 hPa 0,0 l/m 2 min 0 min 1,0 UV-I 466 W/m 12,6 km/h (3 Bft)
25.06.2014 09:54 14,2 C 14,4 C 77 % 1015,9 hPa 0,0 l/m 2 min 0 min 1,0 UV-I 502 W/m 14,6 km/h (3 Bft)
25.06.2014 09:56 14,2 C 14,4 C 77 % 1015,8 hPa 0,0 l/m 2 min 0 min 1,3 UV-I 377 W/m 12,6 km/h (3 Bft)
25.06.2014 09:58 14,2 C 14,4 C 78 % 1015,8 hPa 0,0 l/m 2 min 0 min 0,9 UV-I 701 W/m 14,6 km/h (3 Bft)
25.06.2014 10:00 14,3 C 14,4 C 78 % 1015,8 hPa 0,0 l/m 2 min 0 min 0,9 UV-I 374 W/m 10,5 km/h (2 Bft)
25.06.2014 10:02 14,3 C 14,4 C 78 % 1015,8 hPa 0,0 l/m 0 min 0 min 0,8 UV-I 324 W/m 8,4 km/h (2 Bft)
25.06.2014 10:04 14,4 C 14,4 C 77 % 1015,8 hPa 0,0 l/m 0 min 0 min 0,7 UV-I 330 W/m 16,7 km/h (3 Bft)
25.06.2014 10:06 14,4 C 14,4 C 78 % 1015,9 hPa 0,0 l/m 2 min 0 min 1,0 UV-I 466 W/m 12,6 km/h (3 Bft)
25.06.2014 10:08 14,4 C 15,0 C 77 % 1015,9 hPa 0,0 l/m 2 min 0 min 1,0 UV-I 407 W/m 8,4 km/h (2 Bft)
25.06.2014 10:10 14,4 C 14,4 C 77 % 1015,9 hPa 0,0 l/m 0 min 0 min 0,6 UV-I 234 W/m 14,6 km/h (3 Bft)
25.06.2014 10:12 14,4 C 14,4 C 76 % 1015,9 hPa 0,0 l/m 0 min 0 min 0,5 UV-I 214 W/m 14,6 km/h (3 Bft)
25.06.2014 10:14 14,2 C 13,9 C 77 % 1015,9 hPa 0,0 l/m 0 min 0 min 0,0 UV-I 219 W/m 14,6 km/h (3 Bft)
25.06.2014 10:16 14,2 C 13,9 C 76 % 1015,9 hPa 0,0 l/m 0 min 0 min 0,0 UV-I 220 W/m 12,6 km/h (3 Bft)
25.06.2014 10:18 14,2 C 13,9 C 77 % 1015,9 hPa 0,0 l/m 0 min 0 min 0,5 UV-I 228 W/m 10,5 km/h (2 Bft)
25.06.2014 10:20 14,2 C 13,9 C 77 % 1015,9 hPa 0,0 l/m 0 min 0 min 0,5 UV-I 241 W/m 12,6 km/h (3 Bft)
25.06.2014 10:22 14,2 C 14,4 C 78 % 1015,9 hPa 0,0 l/m 0 min 0 min 0,6 UV-I 261 W/m 12,6 km/h (3 Bft)
25.06.2014 10:24 14,2 C 14,4 C 77 % 1015,9 hPa 0,0 l/m 0 min 0 min 0,5 UV-I 270 W/m 16,7 km/h (3 Bft)
25.06.2014 10:26 14,2 C 14,4 C 76 % 1015,9 hPa 0,0 l/m 0 min 0 min 0,0 UV-I 265 W/m 18,8 km/h (3 Bft)
25.06.2014 10:28 14,2 C 13,9 C 77 % 1015,9 hPa 0,0 l/m 0 min 0 min 0,0 UV-I 243 W/m 14,6 km/h (3 Bft)
25.06.2014 10:30 14,2 C 13,9 C 76 % 1015,9 hPa 0,0 l/m 0 min 0 min 0,0 UV-I 214 W/m 10,5 km/h (2 Bft)
25.06.2014 10:32 14,2 C 13,9 C 75 % 1015,9 hPa 0,0 l/m 0 min 0 min 0,0 UV-I 211 W/m 12,6 km/h (3 Bft)
25.06.2014 10:34 14,2 C 13,9 C 76 % 1015,9 hPa 0,0 l/m 0 min 0 min 0,0 UV-I 234 W/m 10,5 km/h (2 Bft)
25.06.2014 10:36 14,2 C 13,9 C 77 % 1015,9 hPa 0,0 l/m 0 min 0 min 0,5 UV-I 279 W/m 8,4 km/h (2 Bft)
25.06.2014 10:38 14,2 C 13,9 C 76 % 1015,9 hPa 0,0 l/m 0 min 0 min 0,7 UV-I 309 W/m 12,6 km/h (3 Bft)
25.06.2014 10:40 14,2 C 14,4 C 76 % 1015,9 hPa 0,0 l/m 0 min 0 min 0,8 UV-I 329 W/m 12,6 km/h (3 Bft)
25.06.2014 10:42 14,2 C 14,4 C 77 % 1016,0 hPa 0,0 l/m 0 min 0 min 0,9 UV-I 360 W/m 10,5 km/h (2 Bft)
25.06.2014 10:44 14,4 C 15,0 C 77 % 1015,9 hPa 0,0 l/m 0 min 0 min 1,0 UV-I 374 W/m 10,5 km/h (2 Bft)
25.06.2014 10:46 14,6 C 15,0 C 77 % 1015,9 hPa 0,0 l/m 0 min 0 min 1,1 UV-I 395 W/m 10,5 km/h (2 Bft)
25.06.2014 10:48 14,8 C 15,0 C 76 % 1015,9 hPa 0,0 l/m 2 min 0 min 1,2 UV-I 430 W/m 10,5 km/h (2 Bft)
25.06.2014 10:50 15,1 C 15,6 C 76 % 1015,9 hPa 0,0 l/m 2 min 0 min 1,3 UV-I 448 W/m 14,6 km/h (3 Bft)
25.06.2014 10:52 15,1 C 15,6 C 73 % 1015,9 hPa 0,0 l/m 2 min 0 min 3,1 UV-I 507 W/m 10,5 km/h (2 Bft)
25.06.2014 10:54 15,1 C 15,6 C 72 % 1015,9 hPa 0,0 l/m 0 min 0 min 0,9 UV-I 342 W/m 14,6 km/h (3 Bft)
25.06.2014 10:56 15,1 C 15,6 C 72 % 1015,9 hPa 0,0 l/m 0 min 0 min 0,6 UV-I 295 W/m 12,6 km/h (3 Bft)
25.06.2014 10:58 15,1 C 15,6 C 73 % 1015,9 hPa 0,0 l/m 0 min 0 min 0,5 UV-I 270 W/m 10,5 km/h (2 Bft)
25.06.2014 11:00 15,1 C 15,0 C 71 % 1015,9 hPa 0,0 l/m 0 min 0 min 0,0 UV-I 255 W/m 12,6 km/h (3 Bft)
25.06.2014 11:02 15,1 C 15,0 C 72 % 1015,9 hPa 0,0 l/m 0 min 0 min 0,0 UV-I 243 W/m 12,6 km/h (3 Bft)
25.06.2014 11:04 15,1 C 15,0 C 70 % 1015,9 hPa 0,0 l/m 0 min 0 min 0,0 UV-I 237 W/m 16,7 km/h (3 Bft)
25.06.2014 11:06 15,1 C 15,0 C 69 % 1015,9 hPa 0,0 l/m 0 min 0 min 0,0 UV-I 241 W/m 23,0 km/h (4 Bft)
25.06.2014 11:08 15,0 C 15,0 C 69 % 1015,9 hPa 0,0 l/m 0 min 0 min 0,5 UV-I 247 W/m 20,9 km/h (4 Bft)
25.06.2014 11:10 14,9 C 15,0 C 69 % 1015,9 hPa 0,0 l/m 0 min 0 min 0,6 UV-I 265 W/m 10,5 km/h (2 Bft)
25.06.2014 11:12 14,9 C 15,0 C 69 % 1015,9 hPa 0,0 l/m 0 min 0 min 1,0 UV-I 333 W/m 14,6 km/h (3 Bft)
25.06.2014 11:14 14,9 C 15,0 C 70 % 1015,9 hPa 0,0 l/m 0 min 0 min 1,2 UV-I 383 W/m 12,6 km/h (3 Bft)
25.06.2014 11:16 15,0 C 15,6 C 71 % 1016,0 hPa 0,0 l/m 2 min 0 min 1,3 UV-I 439 W/m 16,7 km/h (3 Bft)
25.06.2014 11:18 15,2 C 15,6 C 71 % 1016,0 hPa 0,0 l/m 2 min 0 min 1,6 UV-I 478 W/m 18,8 km/h (3 Bft)
25.06.2014 11:20 15,3 C 15,6 C 70 % 1016,0 hPa 0,0 l/m 2 min 0 min 1,7 UV-I 466 W/m 16,7 km/h (3 Bft)
25.06.2014 11:22 15,3 C 15,6 C 70 % 1015,9 hPa 0,0 l/m 2 min 0 min 1,8 UV-I 491 W/m 20,9 km/h (4 Bft)
25.06.2014 11:24 15,3 C 16,1 C 70 % 1016,0 hPa 0,0 l/m 2 min 0 min 2,1 UV-I 588 W/m 18,8 km/h (3 Bft)
25.06.2014 11:26 15,4 C 16,1 C 69 % 1015,9 hPa 0,0 l/m 2 min 0 min 2,4 UV-I 648 W/m 18,8 km/h (3 Bft)
25.06.2014 11:28 15,4 C 16,1 C 68 % 1016,0 hPa 0,0 l/m 2 min 0 min 2,1 UV-I 648 W/m 20,9 km/h (4 Bft)
25.06.2014 11:30 15,4 C 16,1 C 68 % 1016,0 hPa 0,0 l/m 2 min 0 min 1,9 UV-I 624 W/m 14,6 km/h (3 Bft)
25.06.2014 11:32 15,4 C 16,7 C 70 % 1016,0 hPa 0,0 l/m 2 min 0 min 1,8 UV-I 477 W/m 16,7 km/h (3 Bft)
25.06.2014 11:34 15,7 C 16,7 C 70 % 1016,0 hPa 0,0 l/m 2 min 0 min 2,3 UV-I 475 W/m 18,8 km/h (3 Bft)
25.06.2014 11:36 15,8 C 16,7 C 69 % 1016,1 hPa 0,0 l/m 0 min 0 min 1,8 UV-I 396 W/m 14,6 km/h (3 Bft)
25.06.2014 11:38 15,8 C 16,7 C 69 % 1016,0 hPa 0,0 l/m 0 min 0 min 1,9 UV-I 417 W/m 14,6 km/h (3 Bft)
25.06.2014 11:40 15,8 C 16,7 C 69 % 1016,0 hPa 0,0 l/m 0 min 0 min 1,8 UV-I 401 W/m 10,5 km/h (2 Bft)
25.06.2014 11:42 15,9 C 16,7 C 69 % 1016,0 hPa 0,0 l/m 0 min 0 min 1,8 UV-I 378 W/m 14,6 km/h (3 Bft)
25.06.2014 11:44 15,9 C 16,7 C 68 % 1016,0 hPa 0,0 l/m 0 min 0 min 1,9 UV-I 399 W/m 14,6 km/h (3 Bft)
25.06.2014 11:46 15,8 C 16,7 C 68 % 1016,1 hPa 0,0 l/m 0 min 0 min 1,6 UV-I 345 W/m 18,8 km/h (3 Bft)
25.06.2014 11:48 15,8 C 16,7 C 67 % 1016,0 hPa 0,0 l/m 0 min 0 min 1,0 UV-I 279 W/m 14,6 km/h (3 Bft)
25.06.2014 11:50 15,6 C 16,1 C 68 % 1016,1 hPa 0,0 l/m 0 min 0 min 0,7 UV-I 236 W/m 12,6 km/h (3 Bft)
25.06.2014 11:52 15,5 C 16,1 C 69 % 1016,1 hPa 0,0 l/m 0 min 0 min 0,5 UV-I 202 W/m 16,7 km/h (3 Bft)
25.06.2014 11:54 15,4 C 15,6 C 69 % 1016,1 hPa 0,0 l/m 0 min 0 min 0,0 UV-I 186 W/m 16,7 km/h (3 Bft)
25.06.2014 11:56 15,3 C 15,6 C 68 % 1016,1 hPa 0,0 l/m 0 min 0 min 0,0 UV-I 178 W/m 14,6 km/h (3 Bft)
25.06.2014 11:58 15,2 C 15,6 C 68 % 1016,1 hPa 0,0 l/m 0 min 0 min 0,5 UV-I 186 W/m 16,7 km/h (3 Bft)
25.06.2014 12:00 15,2 C 15,0 C 67 % 1016,1 hPa 0,0 l/m 0 min 0 min 0,6 UV-I 197 W/m 18,8 km/h (3 Bft)
25.06.2014 12:02 15,3 C 15,0 C 68 % 1016,1 hPa 0,0 l/m 0 min 0 min 0,7 UV-I 209 W/m 12,6 km/h (3 Bft)
25.06.2014 12:06 15,4 C 15,6 C 67 % 1016,1 hPa 0,0 l/m 0 min 0 min 1,1 UV-I 260 W/m 14,6 km/h (3 Bft)
25.06.2014 12:08 15,4 C 15,6 C 68 % 1016,1 hPa 0,0 l/m 0 min 0 min 1,4 UV-I 294 W/m 18,8 km/h (3 Bft)
25.06.2014 12:10 15,5 C 16,1 C 67 % 1016,1 hPa 0,0 l/m 0 min 0 min 2,1 UV-I 353 W/m 10,5 km/h (2 Bft)
25.06.2014 12:12 15,6 C 16,1 C 66 % 1016,2 hPa 0,0 l/m 0 min 0 min 1,7 UV-I 355 W/m 20,9 km/h (4 Bft)
25.06.2014 12:14 15,6 C 16,1 C 65 % 1016,1 hPa 0,0 l/m 0 min 0 min 1,7 UV-I 376 W/m 14,6 km/h (3 Bft)
25.06.2014 12:16 15,7 C 16,1 C 64 % 1016,1 hPa 0,0 l/m 0 min 0 min 1,8 UV-I 359 W/m 16,7 km/h (3 Bft)
25.06.2014 12:18 15,7 C 16,1 C 64 % 1016,1 hPa 0,0 l/m 0 min 0 min 1,9 UV-I 366 W/m 18,8 km/h (3 Bft)
25.06.2014 12:20 15,8 C 16,1 C 63 % 1016,1 hPa 0,0 l/m 0 min 0 min 2,0 UV-I 435 W/m 25,1 km/h (4 Bft)
25.06.2014 12:22 15,8 C 16,1 C 62 % 1016,1 hPa 0,0 l/m 0 min 0 min 2,3 UV-I 441 W/m 23,0 km/h (4 Bft)
25.06.2014 12:24 16,0 C 17,2 C 62 % 1016,1 hPa 0,0 l/m 0 min 0 min 2,6 UV-I 441 W/m 18,8 km/h (3 Bft)
25.06.2014 12:26 16,1 C 16,7 C 61 % 1016,1 hPa 0,0 l/m 2 min 0 min 2,6 UV-I 482 W/m 23,0 km/h (4 Bft)
25.06.2014 12:28 16,1 C 16,7 C 61 % 1016,2 hPa 0,0 l/m 0 min 0 min 2,4 UV-I 461 W/m 20,9 km/h (4 Bft)
25.06.2014 12:30 16,1 C 16,7 C 62 % 1016,1 hPa 0,0 l/m 0 min 0 min 2,2 UV-I 436 W/m 18,8 km/h (3 Bft)
25.06.2014 12:32 16,2 C 17,2 C 62 % 1016,1 hPa 0,0 l/m 0 min 0 min 1,9 UV-I 399 W/m 10,5 km/h (2 Bft)
25.06.2014 12:34 16,2 C 17,2 C 61 % 1016,1 hPa 0,0 l/m 0 min 0 min 2,0 UV-I 387 W/m 12,6 km/h (3 Bft)
25.06.2014 12:36 16,3 C 17,2 C 62 % 1016,1 hPa 0,0 l/m 0 min 0 min 2,2 UV-I 436 W/m 8,4 km/h (2 Bft)
25.06.2014 12:38 16,7 C 17,8 C 61 % 1016,0 hPa 0,0 l/m 0 min 0 min 2,2 UV-I 464 W/m 12,6 km/h (3 Bft)
25.06.2014 12:40 16,6 C 17,2 C 59 % 1016,1 hPa 0,0 l/m 0 min 0 min 1,7 UV-I 371 W/m 20,9 km/h (4 Bft)
25.06.2014 12:42 16,4 C 16,7 C 61 % 1016,1 hPa 0,0 l/m 0 min 0 min 1,5 UV-I 338 W/m 20,9 km/h (4 Bft)
25.06.2014 12:44 16,5 C 16,7 C 61 % 1016,1 hPa 0,0 l/m 0 min 0 min 1,4 UV-I 316 W/m 20,9 km/h (4 Bft)
25.06.2014 12:46 16,4 C 16,7 C 62 % 1016,1 hPa 0,0 l/m 0 min 0 min 1,3 UV-I 297 W/m 18,8 km/h (3 Bft)
25.06.2014 12:48 16,3 C 16,7 C 61 % 1016,1 hPa 0,0 l/m 0 min 0 min 1,2 UV-I 285 W/m 10,5 km/h (2 Bft)
25.06.2014 12:50 16,3 C 16,7 C 63 % 1016,1 hPa 0,0 l/m 0 min 0 min 1,1 UV-I 276 W/m 8,4 km/h (2 Bft)
25.06.2014 12:52 16,4 C 16,7 C 63 % 1016,0 hPa 0,0 l/m 0 min 0 min 1,1 UV-I 260 W/m 16,7 km/h (3 Bft)
25.06.2014 12:54 16,3 C 16,1 C 62 % 1016,0 hPa 0,0 l/m 0 min 0 min 1,1 UV-I 260 W/m 27,2 km/h (4 Bft)
25.06.2014 12:56 16,2 C 16,1 C 62 % 1016,0 hPa 0,0 l/m 0 min 0 min 1,3 UV-I 276 W/m 20,9 km/h (4 Bft)
25.06.2014 12:58 16,0 C 16,1 C 62 % 1016,0 hPa 0,0 l/m 0 min 0 min 1,4 UV-I 311 W/m 16,7 km/h (3 Bft)
25.06.2014 13:00 15,9 C 16,1 C 63 % 1016,1 hPa 0,0 l/m 0 min 0 min 1,4 UV-I 318 W/m 20,9 km/h (4 Bft)
25.06.2014 13:02 16,0 C 16,1 C 63 % 1016,1 hPa 0,0 l/m 0 min 0 min 1,3 UV-I 297 W/m 18,8 km/h (3 Bft)
25.06.2014 13:04 16,0 C 16,1 C 64 % 1016,1 hPa 0,0 l/m 0 min 0 min 1,3 UV-I 294 W/m 16,7 km/h (3 Bft)
25.06.2014 13:06 16,1 C 16,1 C 64 % 1016,1 hPa 0,0 l/m 0 min 0 min 1,4 UV-I 301 W/m 18,8 km/h (3 Bft)
25.06.2014 13:08 16,2 C 16,7 C 63 % 1016,1 hPa 0,0 l/m 0 min 0 min 1,5 UV-I 318 W/m 8,4 km/h (2 Bft)
25.06.2014 13:10 16,3 C 16,7 C 63 % 1016,1 hPa 0,0 l/m 0 min 0 min 1,8 UV-I 360 W/m 25,1 km/h (4 Bft)
25.06.2014 13:12 16,2 C 16,7 C 62 % 1016,1 hPa 0,0 l/m 0 min 0 min 2,1 UV-I 390 W/m 14,6 km/h (3 Bft)
25.06.2014 13:14 16,2 C 16,7 C 63 % 1016,1 hPa 0,0 l/m 0 min 0 min 2,3 UV-I 439 W/m 12,6 km/h (3 Bft)
25.06.2014 13:16 16,4 C 17,2 C 63 % 1016,1 hPa 0,0 l/m 0 min 0 min 2,5 UV-I 471 W/m 20,9 km/h (4 Bft)
25.06.2014 13:18 16,4 C 17,2 C 63 % 1016,1 hPa 0,0 l/m 2 min 0 min 2,9 UV-I 487 W/m 14,6 km/h (3 Bft)
25.06.2014 13:20 16,4 C 17,2 C 62 % 1016,1 hPa 0,0 l/m 0 min 0 min 2,5 UV-I 432 W/m 18,8 km/h (3 Bft)
25.06.2014 13:22 16,5 C 17,8 C 63 % 1016,1 hPa 0,0 l/m 0 min 0 min 2,1 UV-I 411 W/m 16,7 km/h (3 Bft)
25.06.2014 13:24 16,4 C 17,2 C 62 % 1016,1 hPa 0,0 l/m 0 min 0 min 2,0 UV-I 390 W/m 12,6 km/h (3 Bft)
25.06.2014 13:26 16,3 C 17,2 C 63 % 1016,1 hPa 0,0 l/m 0 min 0 min 2,1 UV-I 406 W/m 12,6 km/h (3 Bft)
25.06.2014 13:28 16,4 C 17,2 C 64 % 1016,0 hPa 0,0 l/m 0 min 0 min 2,3 UV-I 429 W/m 12,6 km/h (3 Bft)
25.06.2014 13:30 16,6 C 17,8 C 63 % 1016,1 hPa 0,0 l/m 2 min 0 min 2,6 UV-I 494 W/m 18,8 km/h (3 Bft)
25.06.2014 13:32 16,6 C 17,8 C 63 % 1016,1 hPa 0,0 l/m 2 min 0 min 2,8 UV-I 527 W/m 23,0 km/h (4 Bft)
25.06.2014 13:34 16,7 C 17,8 C 63 % 1016,1 hPa 0,0 l/m 2 min 0 min 2,7 UV-I 478 W/m 16,7 km/h (3 Bft)
25.06.2014 13:36 16,8 C 17,8 C 61 % 1016,1 hPa 0,0 l/m 0 min 0 min 2,7 UV-I 469 W/m 12,6 km/h (3 Bft)
25.06.2014 13:38 16,9 C 17,8 C 61 % 1016,1 hPa 0,0 l/m 2 min 0 min 3,0 UV-I 547 W/m 14,6 km/h (3 Bft)
25.06.2014 13:40 16,9 C 17,8 C 62 % 1016,1 hPa 0,0 l/m 2 min 0 min 5,9 UV-I 547 W/m 12,6 km/h (3 Bft)
25.06.2014 13:42 17,1 C 18,3 C 62 % 1016,0 hPa 0,0 l/m 2 min 0 min 4,8 UV-I 958 W/m 20,9 km/h (4 Bft)
25.06.2014 13:44 17,4 C 18,9 C 61 % 1016,0 hPa 0,0 l/m 2 min 0 min 5,2 UV-I 1007 W/m 20,9 km/h (4 Bft)
25.06.2014 13:46 17,8 C 19,4 C 61 % 1015,9 hPa 0,0 l/m 2 min 0 min 5,2 UV-I 900 W/m 16,7 km/h (3 Bft)
25.06.2014 13:48 17,9 C 19,4 C 59 % 1016,0 hPa 0,0 l/m 2 min 0 min 3,2 UV-I 499 W/m 14,6 km/h (3 Bft)
25.06.2014 13:50 17,7 C 18,9 C 57 % 1016,0 hPa 0,0 l/m 2 min 0 min 3,1 UV-I 480 W/m 12,6 km/h (3 Bft)
25.06.2014 13:52 17,3 C 18,9 C 59 % 1016,0 hPa 0,0 l/m 2 min 0 min 3,1 UV-I 534 W/m 8,4 km/h (2 Bft)
25.06.2014 13:54 17,5 C 18,9 C 60 % 1015,9 hPa 0,0 l/m 2 min 0 min 3,0 UV-I 490 W/m 10,5 km/h (2 Bft)
25.06.2014 13:56 17,7 C 18,9 C 59 % 1015,9 hPa 0,0 l/m 2 min 0 min 3,5 UV-I 622 W/m 8,4 km/h (2 Bft)
25.06.2014 13:58 17,9 C 19,4 C 61 % 1015,9 hPa 0,0 l/m 2 min 0 min 4,4 UV-I 991 W/m 16,7 km/h (3 Bft)
25.06.2014 14:00 18,3 C 20,0 C 59 % 1015,8 hPa 0,0 l/m 2 min 0 min 4,2 UV-I 1048 W/m 16,7 km/h (3 Bft)
25.06.2014 14:02 18,5 C 20,0 C 59 % 1015,9 hPa 0,0 l/m 2 min 0 min 2,5 UV-I 1048 W/m 12,6 km/h (3 Bft)
25.06.2014 14:04 18,3 C 18,9 C 58 % 1015,9 hPa 0,0 l/m 0 min 0 min 2,3 UV-I 325 W/m 20,9 km/h (4 Bft)
25.06.2014 14:06 17,8 C 18,3 C 58 % 1015,9 hPa 0,0 l/m 0 min 0 min 4,3 UV-I 380 W/m 16,7 km/h (3 Bft)
25.06.2014 14:08 17,8 C 18,9 C 61 % 1015,9 hPa 0,0 l/m 0 min 0 min 2,0 UV-I 297 W/m 12,6 km/h (3 Bft)
25.06.2014 14:10 17,8 C 18,3 C 59 % 1015,9 hPa 0,0 l/m 0 min 0 min 1,9 UV-I 272 W/m 25,1 km/h (4 Bft)
25.06.2014 14:12 17,6 C 17,8 C 58 % 1015,9 hPa 0,0 l/m 0 min 0 min 1,9 UV-I 292 W/m 18,8 km/h (3 Bft)
25.06.2014 14:14 17,4 C 18,3 C 59 % 1015,9 hPa 0,0 l/m 0 min 0 min 4,3 UV-I 334 W/m 18,8 km/h (3 Bft)
25.06.2014 14:16 17,5 C 20,6 C 59 % 1015,8 hPa 0,0 l/m 0 min 0 min 2,7 UV-I 334 W/m 20,9 km/h (4 Bft)
25.06.2014 14:18 17,6 C 21,1 C 58 % 1015,8 hPa 0,0 l/m 0 min 0 min 4,5 UV-I 334 W/m 20,9 km/h (4 Bft)
25.06.2014 14:20 17,9 C 23,3 C 58 % 1015,8 hPa 0,0 l/m 2 min 0 min 4,9 UV-I 995 W/m 14,6 km/h (3 Bft)
25.06.2014 14:22 18,0 C 25,0 C 59 % 1015,7 hPa 0,0 l/m 2 min 0 min 4,9 UV-I 977 W/m 23,0 km/h (4 Bft)
25.06.2014 14:24 18,1 C 23,9 C 58 % 1015,8 hPa 0,0 l/m 2 min 0 min 2,5 UV-I 1011 W/m 27,2 km/h (4 Bft)
25.06.2014 14:26 17,9 C 22,2 C 59 % 1015,8 hPa 0,0 l/m 2 min 0 min 2,1 UV-I 1011 W/m 23,0 km/h (4 Bft)
25.06.2014 14:28 17,7 C 20,0 C 60 % 1015,8 hPa 0,0 l/m 0 min 0 min 2,0 UV-I 190 W/m 14,6 km/h (3 Bft)
25.06.2014 14:30 17,7 C 22,2 C 62 % 1015,8 hPa 0,0 l/m 2 min 0 min 4,5 UV-I 1019 W/m 16,7 km/h (3 Bft)
25.06.2014 14:32 17,8 C 23,9 C 61 % 1015,7 hPa 0,0 l/m 2 min 0 min 4,6 UV-I 997 W/m 16,7 km/h (3 Bft)
25.06.2014 14:34 17,9 C 25,0 C 63 % 1015,8 hPa 0,0 l/m 2 min 0 min 4,5 UV-I 971 W/m 18,8 km/h (3 Bft)
25.06.2014 14:36 18,5 C 25,6 C 61 % 1015,7 hPa 0,0 l/m 2 min 0 min 4,5 UV-I 971 W/m 18,8 km/h (3 Bft)
25.06.2014 14:38 18,6 C 25,6 C 59 % 1015,7 hPa 0,0 l/m 2 min 0 min 4,5 UV-I 963 W/m 16,7 km/h (3 Bft)
25.06.2014 14:40 18,8 C 25,6 C 60 % 1015,7 hPa 0,0 l/m 2 min 0 min 4,5 UV-I 971 W/m 14,6 km/h (3 Bft)
25.06.2014 14:42 19,2 C 25,6 C 59 % 1015,7 hPa 0,0 l/m 2 min 0 min 4,5 UV-I 987 W/m 20,9 km/h (4 Bft)
25.06.2014 14:44 18,9 C 25,0 C 57 % 1015,8 hPa 0,0 l/m 2 min 0 min 4,5 UV-I 990 W/m 16,7 km/h (3 Bft)
25.06.2014 14:46 18,6 C 23,3 C 56 % 1015,7 hPa 0,0 l/m 2 min 0 min 4,4 UV-I 971 W/m 20,9 km/h (4 Bft)
25.06.2014 14:48 18,3 C 21,7 C 58 % 1015,7 hPa 0,0 l/m 2 min 0 min 4,4 UV-I 963 W/m 14,6 km/h (3 Bft)
25.06.2014 14:50 18,1 C 20,0 C 56 % 1015,8 hPa 0,0 l/m 2 min 0 min 4,2 UV-I 928 W/m 23,0 km/h (4 Bft)
25.06.2014 14:52 18,2 C 20,0 C 58 % 1015,7 hPa 0,0 l/m 2 min 0 min 4,4 UV-I 968 W/m 20,9 km/h (4 Bft)
25.06.2014 14:54 18,3 C 20,0 C 58 % 1015,6 hPa 0,0 l/m 2 min 0 min 4,3 UV-I 971 W/m 16,7 km/h (3 Bft)
25.06.2014 14:56 18,4 C 20,6 C 57 % 1015,6 hPa 0,0 l/m 2 min 0 min 4,3 UV-I 966 W/m 14,6 km/h (3 Bft)
25.06.2014 14:58 18,6 C 21,1 C 57 % 1015,6 hPa 0,0 l/m 2 min 0 min 4,2 UV-I 958 W/m 20,9 km/h (4 Bft)
25.06.2014 15:00 18,3 C 21,7 C 57 % 1015,5 hPa 0,0 l/m 2 min 0 min 4,2 UV-I 958 W/m 14,6 km/h (3 Bft)
25.06.2014 15:02 18,5 C 21,7 C 57 % 1015,6 hPa 0,0 l/m 2 min 0 min 4,2 UV-I 958 W/m 20,9 km/h (4 Bft)
25.06.2014 15:04 18,6 C 22,2 C 57 % 1015,5 hPa 0,0 l/m 2 min 0 min 4,2 UV-I 956 W/m 18,8 km/h (3 Bft)
25.06.2014 15:06 18,7 C 22,8 C 58 % 1015,4 hPa 0,0 l/m 2 min 0 min 4,1 UV-I 958 W/m 18,8 km/h (3 Bft)
25.06.2014 15:08 19,1 C 22,2 C 57 % 1015,5 hPa 0,0 l/m 2 min 0 min 4,1 UV-I 968 W/m 20,9 km/h (4 Bft)
25.06.2014 15:10 19,2 C 21,7 C 58 % 1015,4 hPa 0,0 l/m 2 min 0 min 4,1 UV-I 982 W/m 10,5 km/h (2 Bft)
25.06.2014 15:12 19,4 C 21,7 C 58 % 1015,4 hPa 0,0 l/m 2 min 0 min 4,0 UV-I 1006 W/m 20,9 km/h (4 Bft)
25.06.2014 15:14 19,4 C 21,7 C 56 % 1015,4 hPa 0,0 l/m 2 min 0 min 2,3 UV-I 1005 W/m 20,9 km/h (4 Bft)
25.06.2014 15:16 19,4 C 22,2 C 59 % 1015,4 hPa 0,0 l/m 0 min 0 min 4,0 UV-I 328 W/m 8,4 km/h (2 Bft)
25.06.2014 15:18 19,2 C 22,8 C 55 % 1015,3 hPa 0,0 l/m 2 min 0 min 4,0 UV-I 1019 W/m 8,4 km/h (2 Bft)
25.06.2014 15:20 19,0 C 22,8 C 56 % 1015,4 hPa 0,0 l/m 2 min 0 min 4,0 UV-I 1006 W/m 27,2 km/h (4 Bft)
25.06.2014 15:22 18,7 C 22,8 C 57 % 1015,4 hPa 0,0 l/m 2 min 0 min 3,9 UV-I 990 W/m 20,9 km/h (4 Bft)
25.06.2014 15:24 19,1 C 22,2 C 59 % 1015,3 hPa 0,0 l/m 2 min 0 min 3,8 UV-I 966 W/m 16,7 km/h (3 Bft)
25.06.2014 15:26 18,9 C 21,1 C 56 % 1015,4 hPa 0,0 l/m 2 min 0 min 3,8 UV-I 989 W/m 16,7 km/h (3 Bft)
25.06.2014 15:28 19,1 C 21,1 C 56 % 1015,4 hPa 0,0 l/m 2 min 0 min 3,9 UV-I 989 W/m 20,9 km/h (4 Bft)
25.06.2014 15:30 19,1 C 20,6 C 56 % 1015,4 hPa 0,0 l/m 2 min 0 min 4,0 UV-I 1033 W/m 18,8 km/h (3 Bft)
25.06.2014 15:32 18,9 C 20,6 C 57 % 1015,4 hPa 0,0 l/m 2 min 0 min 4,0 UV-I 1053 W/m 12,6 km/h (3 Bft)
25.06.2014 15:34 19,2 C 21,1 C 56 % 1015,2 hPa 0,0 l/m 2 min 0 min 2,6 UV-I 629 W/m 16,7 km/h (3 Bft)
25.06.2014 15:36 19,2 C 20,6 C 56 % 1015,2 hPa 0,0 l/m 2 min 0 min 1,8 UV-I 515 W/m 16,7 km/h (3 Bft)
25.06.2014 15:38 19,1 C 20,0 C 56 % 1015,3 hPa 0,0 l/m 0 min 0 min 2,2 UV-I 378 W/m 14,6 km/h (3 Bft)
25.06.2014 15:40 18,8 C 19,4 C 56 % 1015,3 hPa 0,0 l/m 2 min 0 min 3,5 UV-I 542 W/m 16,7 km/h (3 Bft)
25.06.2014 15:42 18,6 C 19,4 C 57 % 1015,4 hPa 0,0 l/m 2 min 0 min 3,5 UV-I 873 W/m 25,1 km/h (4 Bft)
25.06.2014 15:44 18,7 C 19,4 C 57 % 1015,4 hPa 0,0 l/m 2 min 0 min 3,4 UV-I 861 W/m 20,9 km/h (4 Bft)
25.06.2014 15:46 18,6 C 19,4 C 57 % 1015,4 hPa 0,0 l/m 2 min 0 min 3,4 UV-I 857 W/m 20,9 km/h (4 Bft)
25.06.2014 15:48 19,1 C 20,0 C 59 % 1015,3 hPa 0,0 l/m 2 min 0 min 3,4 UV-I 853 W/m 16,7 km/h (3 Bft)
25.06.2014 15:50 18,9 C 19,4 C 56 % 1015,3 hPa 0,0 l/m 2 min 0 min 3,4 UV-I 851 W/m 18,8 km/h (3 Bft)
25.06.2014 15:52 18,6 C 19,4 C 57 % 1015,3 hPa 0,0 l/m 2 min 0 min 3,3 UV-I 861 W/m 10,5 km/h (2 Bft)
25.06.2014 15:54 18,7 C 19,4 C 58 % 1015,2 hPa 0,0 l/m 2 min 0 min 3,2 UV-I 872 W/m 14,6 km/h (3 Bft)
25.06.2014 15:56 18,7 C 19,4 C 56 % 1015,3 hPa 0,0 l/m 2 min 0 min 3,2 UV-I 867 W/m 27,2 km/h (4 Bft)
25.06.2014 15:58 18,7 C 19,4 C 56 % 1015,3 hPa 0,0 l/m 2 min 0 min 3,2 UV-I 843 W/m 20,9 km/h (4 Bft)
25.06.2014 16:00 18,8 C 19,4 C 56 % 1015,3 hPa 0,0 l/m 2 min 0 min 3,2 UV-I 841 W/m 25,1 km/h (4 Bft)
25.06.2014 16:02 19,0 C 19,4 C 56 % 1015,3 hPa 0,0 l/m 2 min 0 min 3,1 UV-I 830 W/m 20,9 km/h (4 Bft)
25.06.2014 16:04 19,2 C 20,0 C 55 % 1015,2 hPa 0,0 l/m 2 min 0 min 3,1 UV-I 829 W/m 23,0 km/h (4 Bft)
25.06.2014 16:06 19,2 C 20,0 C 56 % 1015,2 hPa 0,0 l/m 2 min 0 min 3,1 UV-I 829 W/m 20,9 km/h (4 Bft)
25.06.2014 16:08 19,2 C 19,4 C 55 % 1015,3 hPa 0,0 l/m 2 min 0 min 3,0 UV-I 829 W/m 25,1 km/h (4 Bft)
25.06.2014 16:10 19,2 C 19,4 C 56 % 1015,3 hPa 0,0 l/m 2 min 0 min 3,0 UV-I 827 W/m 14,6 km/h (3 Bft)
25.06.2014 16:12 19,5 C 20,0 C 57 % 1015,3 hPa 0,0 l/m 2 min 0 min 3,0 UV-I 825 W/m 18,8 km/h (3 Bft)
25.06.2014 16:14 19,7 C 20,0 C 54 % 1015,2 hPa 0,0 l/m 2 min 0 min 3,0 UV-I 835 W/m 16,7 km/h (3 Bft)
25.06.2014 16:16 19,3 C 20,0 C 55 % 1015,2 hPa 0,0 l/m 2 min 0 min 2,8 UV-I 851 W/m 14,6 km/h (3 Bft)
25.06.2014 16:18 19,2 C 19,4 C 54 % 1015,1 hPa 0,0 l/m 2 min 0 min 1,2 UV-I 851 W/m 18,8 km/h (3 Bft)
25.06.2014 16:20 19,2 C 19,4 C 54 % 1015,2 hPa 0,0 l/m 0 min 0 min 1,2 UV-I 166 W/m 29,3 km/h (5 Bft)
25.06.2014 16:22 19,0 C 18,9 C 55 % 1015,3 hPa 0,0 l/m 0 min 0 min 1,2 UV-I 184 W/m 16,7 km/h (3 Bft)
25.06.2014 16:24 18,9 C 18,9 C 55 % 1015,2 hPa 0,0 l/m 0 min 0 min 2,7 UV-I 184 W/m 18,8 km/h (3 Bft)
25.06.2014 16:26 18,9 C 19,4 C 54 % 1015,2 hPa 0,0 l/m 2 min 0 min 2,6 UV-I 813 W/m 18,8 km/h (3 Bft)
25.06.2014 16:28 19,0 C 18,9 C 53 % 1015,2 hPa 0,0 l/m 2 min 0 min 1,2 UV-I 813 W/m 16,7 km/h (3 Bft)
25.06.2014 16:30 18,9 C 18,9 C 53 % 1015,2 hPa 0,0 l/m 2 min 0 min 2,5 UV-I 813 W/m 20,9 km/h (4 Bft)
25.06.2014 16:32 18,7 C 18,3 C 54 % 1015,3 hPa 0,0 l/m 2 min 0 min 2,6 UV-I 813 W/m 18,8 km/h (3 Bft)
25.06.2014 16:34 18,8 C 18,9 C 55 % 1015,2 hPa 0,0 l/m 2 min 0 min 2,6 UV-I 803 W/m 12,6 km/h (3 Bft)
25.06.2014 16:36 19,0 C 19,4 C 55 % 1015,3 hPa 0,0 l/m 2 min 0 min 2,5 UV-I 790 W/m 14,6 km/h (3 Bft)
25.06.2014 16:38 19,6 C 19,4 C 54 % 1015,2 hPa 0,0 l/m 2 min 0 min 2,4 UV-I 789 W/m 12,6 km/h (3 Bft)
25.06.2014 16:40 19,6 C 19,4 C 53 % 1015,2 hPa 0,0 l/m 2 min 0 min 1,1 UV-I 781 W/m 12,6 km/h (3 Bft)
25.06.2014 16:42 19,4 C 18,9 C 53 % 1015,2 hPa 0,0 l/m 0 min 0 min 2,3 UV-I 125 W/m 14,6 km/h (3 Bft)
25.06.2014 16:44 19,1 C 18,9 C 54 % 1015,2 hPa 0,0 l/m 2 min 0 min 2,3 UV-I 782 W/m 23,0 km/h (4 Bft)
25.06.2014 16:46 18,9 C 18,9 C 54 % 1015,2 hPa 0,0 l/m 0 min 0 min 1,0 UV-I 147 W/m 10,5 km/h (2 Bft)
25.06.2014 16:48 18,9 C 18,3 C 54 % 1015,3 hPa 0,0 l/m 0 min 0 min 2,2 UV-I 160 W/m 23,0 km/h (4 Bft)
25.06.2014 16:50 18,9 C 18,9 C 54 % 1015,4 hPa 0,0 l/m 2 min 0 min 2,2 UV-I 797 W/m 18,8 km/h (3 Bft)
25.06.2014 16:52 19,2 C 18,9 C 53 % 1015,4 hPa 0,0 l/m 2 min 0 min 2,1 UV-I 798 W/m 25,1 km/h (4 Bft)
25.06.2014 16:54 19,3 C 19,4 C 53 % 1015,4 hPa 0,0 l/m 2 min 0 min 1,8 UV-I 800 W/m 23,0 km/h (4 Bft)
25.06.2014 16:56 19,3 C 19,4 C 52 % 1015,4 hPa 0,0 l/m 2 min 0 min 1,5 UV-I 797 W/m 18,8 km/h (3 Bft)
25.06.2014 16:58 19,3 C 19,4 C 54 % 1015,3 hPa 0,0 l/m 2 min 0 min 1,2 UV-I 555 W/m 20,9 km/h (4 Bft)
25.06.2014 17:00 19,4 C 19,4 C 53 % 1015,3 hPa 0,0 l/m 2 min 0 min 1,1 UV-I 805 W/m 18,8 km/h (3 Bft)
25.06.2014 17:02 19,4 C 19,4 C 54 % 1015,3 hPa 0,0 l/m 2 min 0 min 1,0 UV-I 805 W/m 12,6 km/h (3 Bft)
25.06.2014 17:04 19,4 C 19,4 C 54 % 1015,3 hPa 0,0 l/m 2 min 0 min 1,0 UV-I 805 W/m 20,9 km/h (4 Bft)
25.06.2014 17:06 19,2 C 19,4 C 55 % 1015,3 hPa 0,0 l/m 2 min 0 min 1,0 UV-I 797 W/m 14,6 km/h (3 Bft)
25.06.2014 17:08 19,2 C 19,4 C 56 % 1015,2 hPa 0,0 l/m 0 min 0 min 0,9 UV-I 256 W/m 10,5 km/h (2 Bft)
25.06.2014 17:10 19,2 C 18,9 C 55 % 1015,3 hPa 0,0 l/m 0 min 0 min 0,9 UV-I 224 W/m 18,8 km/h (3 Bft)
25.06.2014 17:12 19,1 C 18,9 C 55 % 1015,2 hPa 0,0 l/m 2 min 0 min 0,9 UV-I 455 W/m 18,8 km/h (3 Bft)
25.06.2014 17:14 19,2 C 18,9 C 54 % 1015,3 hPa 0,0 l/m 2 min 0 min 0,8 UV-I 770 W/m 23,0 km/h (4 Bft)
25.06.2014 17:16 19,2 C 18,9 C 53 % 1015,3 hPa 0,0 l/m 2 min 0 min 0,8 UV-I 744 W/m 18,8 km/h (3 Bft)
25.06.2014 17:18 19,2 C 18,9 C 53 % 1015,2 hPa 0,0 l/m 2 min 0 min 0,8 UV-I 731 W/m 12,6 km/h (3 Bft)
25.06.2014 17:20 19,4 C 19,4 C 53 % 1015,3 hPa 0,0 l/m 2 min 0 min 0,8 UV-I 718 W/m 20,9 km/h (4 Bft)
25.06.2014 17:22 19,6 C 19,4 C 54 % 1015,3 hPa 0,0 l/m 2 min 0 min 0,8 UV-I 720 W/m 16,7 km/h (3 Bft)
25.06.2014 17:24 19,7 C 19,4 C 51 % 1015,3 hPa 0,0 l/m 2 min 0 min 0,8 UV-I 720 W/m 18,8 km/h (3 Bft)
25.06.2014 17:26 19,7 C 19,4 C 52 % 1015,3 hPa 0,0 l/m 2 min 0 min 0,8 UV-I 728 W/m 16,7 km/h (3 Bft)
25.06.2014 17:28 19,7 C 19,4 C 52 % 1015,3 hPa 0,0 l/m 2 min 0 min 0,8 UV-I 736 W/m 16,7 km/h (3 Bft)
25.06.2014 17:30 19,8 C 18,9 C 53 % 1015,3 hPa 0,0 l/m 0 min 0 min 0,8 UV-I 192 W/m 20,9 km/h (4 Bft)
25.06.2014 17:32 19,6 C 18,9 C 52 % 1015,3 hPa 0,0 l/m 0 min 0 min 0,7 UV-I 190 W/m 25,1 km/h (4 Bft)
25.06.2014 17:34 19,3 C 18,9 C 52 % 1015,3 hPa 0,0 l/m 2 min 0 min 0,7 UV-I 699 W/m 23,0 km/h (4 Bft)
25.06.2014 17:36 19,3 C 18,9 C 52 % 1015,3 hPa 0,0 l/m 2 min 0 min 0,7 UV-I 685 W/m 25,1 km/h (4 Bft)
25.06.2014 17:38 19,2 C 18,3 C 52 % 1015,3 hPa 0,0 l/m 2 min 0 min 0,7 UV-I 669 W/m 25,1 km/h (4 Bft)
25.06.2014 17:40 19,3 C 18,9 C 53 % 1015,4 hPa 0,0 l/m 2 min 0 min 0,6 UV-I 651 W/m 20,9 km/h (4 Bft)
25.06.2014 17:42 19,4 C 18,9 C 52 % 1015,4 hPa 0,0 l/m 2 min 0 min 0,6 UV-I 638 W/m 20,9 km/h (4 Bft)
25.06.2014 17:44 19,3 C 18,3 C 51 % 1015,2 hPa 0,0 l/m 2 min 0 min 0,6 UV-I 608 W/m 16,7 km/h (3 Bft)
25.06.2014 17:46 19,2 C 18,3 C 51 % 1015,2 hPa 0,0 l/m 2 min 0 min 0,6 UV-I 595 W/m 14,6 km/h (3 Bft)
25.06.2014 17:48 19,2 C 18,3 C 53 % 1015,1 hPa 0,0 l/m 2 min 0 min 0,6 UV-I 590 W/m 10,5 km/h (2 Bft)
25.06.2014 17:50 19,3 C 18,3 C 53 % 1015,2 hPa 0,0 l/m 2 min 0 min 0,5 UV-I 580 W/m 14,6 km/h (3 Bft)
25.06.2014 17:52 19,4 C 18,3 C 53 % 1015,1 hPa 0,0 l/m 2 min 0 min 0,5 UV-I 580 W/m 14,6 km/h (3 Bft)
25.06.2014 17:54 19,5 C 18,3 C 54 % 1015,1 hPa 0,0 l/m 2 min 0 min 0,5 UV-I 584 W/m 18,8 km/h (3 Bft)
25.06.2014 17:56 19,5 C 18,3 C 53 % 1015,1 hPa 0,0 l/m 2 min 0 min 0,5 UV-I 586 W/m 16,7 km/h (3 Bft)
25.06.2014 17:58 19,6 C 18,3 C 53 % 1015,1 hPa 0,0 l/m 2 min 0 min 0,5 UV-I 586 W/m 20,9 km/h (4 Bft)
25.06.2014 18:00 19,5 C 18,3 C 54 % 1015,1 hPa 0,0 l/m 2 min 0 min 0,5 UV-I 586 W/m 18,8 km/h (3 Bft)
25.06.2014 18:02 19,5 C 18,3 C 53 % 1015,2 hPa 0,0 l/m 2 min 0 min 0,0 UV-I 570 W/m 18,8 km/h (3 Bft)
25.06.2014 18:06 19,4 C 18,3 C 53 % 1015,1 hPa 0,0 l/m 2 min 0 min 0,0 UV-I 544 W/m 20,9 km/h (4 Bft)
25.06.2014 18:08 19,4 C 18,3 C 51 % 1015,1 hPa 0,0 l/m 2 min 0 min 0,0 UV-I 528 W/m 16,7 km/h (3 Bft)
25.06.2014 18:10 19,3 C 18,3 C 51 % 1015,1 hPa 0,0 l/m 2 min 0 min 0,0 UV-I 526 W/m 12,6 km/h (3 Bft)
25.06.2014 18:12 19,2 C 17,8 C 52 % 1015,2 hPa 0,0 l/m 0 min 0 min 0,0 UV-I 101 W/m 10,5 km/h (2 Bft)
25.06.2014 18:14 19,1 C 17,8 C 53 % 1015,2 hPa 0,0 l/m 0 min 0 min 0,0 UV-I 95 W/m 18,8 km/h (3 Bft)
25.06.2014 18:16 18,9 C 17,8 C 53 % 1015,1 hPa 0,0 l/m 0 min 0 min 0,0 UV-I 120 W/m 14,6 km/h (3 Bft)
25.06.2014 18:18 18,8 C 17,8 C 53 % 1015,1 hPa 0,0 l/m 2 min 0 min 0,0 UV-I 501 W/m 10,5 km/h (2 Bft)
25.06.2014 18:20 18,9 C 17,8 C 54 % 1015,1 hPa 0,0 l/m 2 min 0 min 0,0 UV-I 499 W/m 8,4 km/h (2 Bft)
25.06.2014 18:22 18,9 C 17,8 C 53 % 1015,1 hPa 0,0 l/m 2 min 0 min 0,0 UV-I 497 W/m 8,4 km/h (2 Bft)
25.06.2014 18:24 19,1 C 17,8 C 53 % 1015,1 hPa 0,0 l/m 2 min 0 min 0,0 UV-I 489 W/m 20,9 km/h (4 Bft)
25.06.2014 18:26 19,1 C 17,8 C 53 % 1015,1 hPa 0,0 l/m 2 min 0 min 0,0 UV-I 481 W/m 18,8 km/h (3 Bft)
25.06.2014 18:28 19,2 C 17,8 C 52 % 1015,1 hPa 0,0 l/m 2 min 0 min 0,0 UV-I 469 W/m 16,7 km/h (3 Bft)
25.06.2014 18:30 19,1 C 17,8 C 52 % 1015,0 hPa 0,0 l/m 2 min 0 min 0,0 UV-I 475 W/m 14,6 km/h (3 Bft)
25.06.2014 18:32 19,1 C 17,8 C 53 % 1015,0 hPa 0,0 l/m 2 min 0 min 0,0 UV-I 465 W/m 14,6 km/h (3 Bft)
25.06.2014 18:34 19,1 C 17,8 C 53 % 1015,0 hPa 0,0 l/m 0 min 0 min 0,0 UV-I 120 W/m 18,8 km/h (3 Bft)
25.06.2014 18:36 19,1 C 17,8 C 52 % 1015,0 hPa 0,0 l/m 0 min 0 min 0,0 UV-I 141 W/m 16,7 km/h (3 Bft)
25.06.2014 18:38 19,0 C 17,8 C 51 % 1015,0 hPa 0,0 l/m 2 min 0 min 0,0 UV-I 435 W/m 14,6 km/h (3 Bft)
25.06.2014 18:40 18,9 C 17,8 C 51 % 1015,0 hPa 0,0 l/m 0 min 0 min 0,0 UV-I 101 W/m 12,6 km/h (3 Bft)
25.06.2014 18:42 18,9 C 17,8 C 52 % 1015,0 hPa 0,0 l/m 0 min 0 min 0,0 UV-I 93 W/m 18,8 km/h (3 Bft)
25.06.2014 18:44 18,8 C 17,8 C 53 % 1015,0 hPa 0,0 l/m 0 min 0 min 0,0 UV-I 89 W/m 18,8 km/h (3 Bft)
25.06.2014 18:46 18,7 C 17,8 C 52 % 1015,0 hPa 0,0 l/m 0 min 0 min 0,0 UV-I 93 W/m 16,7 km/h (3 Bft)
25.06.2014 18:48 18,6 C 17,2 C 53 % 1015,0 hPa 0,0 l/m 0 min 0 min 0,0 UV-I 93 W/m 10,5 km/h (2 Bft)
25.06.2014 18:50 18,6 C 17,2 C 52 % 1015,0 hPa 0,0 l/m 2 min 0 min 0,0 UV-I 386 W/m 10,5 km/h (2 Bft)
25.06.2014 18:52 18,6 C 17,2 C 52 % 1015,0 hPa 0,0 l/m 2 min 0 min 0,0 UV-I 382 W/m 14,6 km/h (3 Bft)
25.06.2014 18:54 18,6 C 17,2 C 53 % 1015,0 hPa 0,0 l/m 2 min 0 min 0,0 UV-I 378 W/m 10,5 km/h (2 Bft)
25.06.2014 18:56 18,7 C 17,8 C 53 % 1015,1 hPa 0,0 l/m 2 min 0 min 0,0 UV-I 363 W/m 14,6 km/h (3 Bft)
25.06.2014 18:58 18,8 C 17,8 C 53 % 1015,0 hPa 0,0 l/m 2 min 0 min 0,0 UV-I 366 W/m 10,5 km/h (2 Bft)
25.06.2014 19:00 18,9 C 17,8 C 53 % 1015,1 hPa 0,0 l/m 2 min 0 min 0,0 UV-I 374 W/m 16,7 km/h (3 Bft)
25.06.2014 19:02 18,9 C 17,8 C 54 % 1015,0 hPa 0,0 l/m 2 min 0 min 0,0 UV-I 374 W/m 14,6 km/h (3 Bft)
25.06.2014 19:04 19,0 C 17,8 C 52 % 1015,1 hPa 0,0 l/m 2 min 0 min 0,0 UV-I 376 W/m 18,8 km/h (3 Bft)
25.06.2014 19:06 19,1 C 17,8 C 52 % 1015,1 hPa 0,0 l/m 2 min 0 min 0,0 UV-I 374 W/m 16,7 km/h (3 Bft)
25.06.2014 19:08 19,1 C 17,8 C 51 % 1015,1 hPa 0,0 l/m 2 min 0 min 0,0 UV-I 368 W/m 14,6 km/h (3 Bft)
25.06.2014 19:10 19,1 C 17,8 C 53 % 1015,0 hPa 0,0 l/m 2 min 0 min 0,0 UV-I 368 W/m 0,0 km/h (0 Bft)
25.06.2014 19:12 19,1 C 17,8 C 53 % 1015,1 hPa 0,0 l/m 2 min 0 min 0,0 UV-I 352 W/m 16,7 km/h (3 Bft)
25.06.2014 19:14 19,2 C 17,8 C 52 % 1015,1 hPa 0,0 l/m 2 min 0 min 0,0 UV-I 352 W/m 14,6 km/h (3 Bft)
25.06.2014 19:16 19,2 C 17,8 C 52 % 1015,2 hPa 0,0 l/m 2 min 0 min 0,0 UV-I 352 W/m 14,6 km/h (3 Bft)
25.06.2014 19:18 19,1 C 17,8 C 52 % 1015,1 hPa 0,0 l/m 2 min 0 min 0,0 UV-I 368 W/m 10,5 km/h (2 Bft)
25.06.2014 19:20 19,1 C 17,8 C 52 % 1015,2 hPa 0,0 l/m 2 min 0 min 0,0 UV-I 371 W/m 10,5 km/h (2 Bft)
25.06.2014 19:22 19,1 C 17,8 C 52 % 1015,2 hPa 0,0 l/m 0 min 0 min 0,0 UV-I 163 W/m 16,7 km/h (3 Bft)
25.06.2014 19:24 19,1 C 17,8 C 53 % 1015,1 hPa 0,0 l/m 2 min 0 min 0,0 UV-I 366 W/m 14,6 km/h (3 Bft)
25.06.2014 19:26 19,1 C 17,8 C 52 % 1015,1 hPa 0,0 l/m 2 min 0 min 0,0 UV-I 232 W/m 14,6 km/h (3 Bft)
25.06.2014 19:28 19,1 C 17,8 C 52 % 1015,1 hPa 0,0 l/m 2 min 0 min 0,0 UV-I 264 W/m 14,6 km/h (3 Bft)
25.06.2014 19:30 19,1 C 18,3 C 52 % 1015,0 hPa 0,0 l/m 2 min 0 min 0,0 UV-I 331 W/m 10,5 km/h (2 Bft)
25.06.2014 19:32 19,1 C 18,3 C 53 % 1015,1 hPa 0,0 l/m 2 min 0 min 0,0 UV-I 317 W/m 10,5 km/h (2 Bft)
25.06.2014 19:34 19,1 C 18,3 C 52 % 1015,2 hPa 0,0 l/m 2 min 0 min 0,0 UV-I 304 W/m 18,8 km/h (3 Bft)
25.06.2014 19:36 19,1 C 17,8 C 52 % 1015,1 hPa 0,0 l/m 2 min 0 min 0,0 UV-I 285 W/m 14,6 km/h (3 Bft)
25.06.2014 19:38 19,1 C 17,8 C 53 % 1015,0 hPa 0,0 l/m 2 min 0 min 0,0 UV-I 285 W/m 16,7 km/h (3 Bft)
25.06.2014 19:40 19,0 C 17,8 C 53 % 1015,0 hPa 0,0 l/m 2 min 0 min 0,0 UV-I 285 W/m 14,6 km/h (3 Bft)
25.06.2014 19:42 18,9 C 17,8 C 53 % 1015,1 hPa 0,0 l/m 2 min 0 min 0,0 UV-I 273 W/m 10,5 km/h (2 Bft)
25.06.2014 19:44 18,9 C 17,8 C 54 % 1015,0 hPa 0,0 l/m 2 min 0 min 0,0 UV-I 269 W/m 14,6 km/h (3 Bft)
25.06.2014 19:46 19,0 C 17,8 C 54 % 1015,1 hPa 0,0 l/m 2 min 0 min 0,0 UV-I 269 W/m 12,6 km/h (3 Bft)
25.06.2014 19:48 19,1 C 17,8 C 54 % 1015,1 hPa 0,0 l/m 2 min 0 min 0,0 UV-I 251 W/m 10,5 km/h (2 Bft)
25.06.2014 19:50 19,1 C 17,8 C 54 % 1015,1 hPa 0,0 l/m 2 min 0 min 0,0 UV-I 245 W/m 8,4 km/h (2 Bft)
25.06.2014 19:52 19,0 C 17,8 C 54 % 1015,1 hPa 0,0 l/m 2 min 0 min 0,0 UV-I 235 W/m 10,5 km/h (2 Bft)
25.06.2014 19:54 19,0 C 17,8 C 54 % 1015,1 hPa 0,0 l/m 2 min 0 min 0,0 UV-I 229 W/m 14,6 km/h (3 Bft)
25.06.2014 19:56 19,0 C 17,8 C 54 % 1015,1 hPa 0,0 l/m 2 min 0 min 0,0 UV-I 224 W/m 14,6 km/h (3 Bft)
25.06.2014 19:58 19,0 C 17,8 C 54 % 1015,0 hPa 0,0 l/m 2 min 0 min 0,0 UV-I 213 W/m 14,6 km/h (3 Bft)
25.06.2014 20:00 18,9 C 17,8 C 54 % 1015,1 hPa 0,0 l/m 2 min 0 min 0,0 UV-I 202 W/m 14,6 km/h (3 Bft)
25.06.2014 20:02 18,9 C 17,8 C 53 % 1015,1 hPa 0,0 l/m 2 min 0 min 0,0 UV-I 205 W/m 12,6 km/h (3 Bft)
25.06.2014 20:04 18,9 C 17,8 C 54 % 1015,1 hPa 0,0 l/m 2 min 0 min 0,0 UV-I 198 W/m 8,4 km/h (2 Bft)
25.06.2014 20:06 18,8 C 17,8 C 53 % 1015,1 hPa 0,0 l/m 2 min 0 min 0,0 UV-I 190 W/m 8,4 km/h (2 Bft)
25.06.2014 20:08 18,8 C 17,8 C 53 % 1015,1 hPa 0,0 l/m 2 min 0 min 0,0 UV-I 179 W/m 12,6 km/h (3 Bft)
25.06.2014 20:10 18,8 C 17,8 C 53 % 1015,1 hPa 0,0 l/m 2 min 0 min 0,0 UV-I 170 W/m 8,4 km/h (2 Bft)
25.06.2014 20:12 18,8 C 17,8 C 53 % 1015,1 hPa 0,0 l/m 2 min 0 min 0,0 UV-I 163 W/m 10,5 km/h (2 Bft)
25.06.2014 20:14 18,8 C 17,8 C 54 % 1015,1 hPa 0,0 l/m 2 min 0 min 0,0 UV-I 160 W/m 12,6 km/h (3 Bft)
25.06.2014 20:16 18,8 C 17,8 C 53 % 1015,1 hPa 0,0 l/m 2 min 0 min 0,0 UV-I 150 W/m 12,6 km/h (3 Bft)
25.06.2014 20:18 18,7 C 17,2 C 54 % 1015,1 hPa 0,0 l/m 2 min 0 min 0,0 UV-I 146 W/m 10,5 km/h (2 Bft)
25.06.2014 20:20 18,7 C 17,2 C 54 % 1015,1 hPa 0,0 l/m 2 min 0 min 0,0 UV-I 141 W/m 2,1 km/h (1 Bft)
25.06.2014 20:22 18,7 C 17,2 C 54 % 1015,1 hPa 0,0 l/m 2 min 0 min 0,0 UV-I 131 W/m 8,4 km/h (2 Bft)
25.06.2014 20:24 18,6 C 17,2 C 54 % 1015,1 hPa 0,0 l/m 2 min 0 min 0,0 UV-I 125 W/m 12,6 km/h (3 Bft)
25.06.2014 20:26 18,6 C 17,2 C 54 % 1015,1 hPa 0,0 l/m 2 min 0 min 0,0 UV-I 120 W/m 8,4 km/h (2 Bft)
25.06.2014 20:28 18,6 C 17,2 C 54 % 1015,1 hPa 0,0 l/m 2 min 0 min 0,0 UV-I 112 W/m 8,4 km/h (2 Bft)
25.06.2014 20:30 18,6 C 17,2 C 54 % 1015,1 hPa 0,0 l/m 2 min 0 min 0,0 UV-I 109 W/m 8,4 km/h (2 Bft)
25.06.2014 20:32 18,6 C 17,2 C 54 % 1015,1 hPa 0,0 l/m 2 min 0 min 0,0 UV-I 105 W/m 12,6 km/h (3 Bft)
25.06.2014 20:34 18,6 C 17,2 C 55 % 1015,1 hPa 0,0 l/m 2 min 0 min 0,0 UV-I 101 W/m 8,4 km/h (2 Bft)
25.06.2014 20:36 18,6 C 17,2 C 55 % 1015,1 hPa 0,0 l/m 2 min 0 min 0,0 UV-I 97 W/m 8,4 km/h (2 Bft)
25.06.2014 20:38 18,6 C 17,2 C 56 % 1015,2 hPa 0,0 l/m 2 min 0 min 0,0 UV-I 93 W/m 10,5 km/h (2 Bft)
25.06.2014 20:40 18,6 C 17,2 C 55 % 1015,1 hPa 0,0 l/m 2 min 0 min 0,0 UV-I 89 W/m 10,5 km/h (2 Bft)
25.06.2014 20:42 18,5 C 17,2 C 56 % 1015,1 hPa 0,0 l/m 2 min 0 min 0,0 UV-I 87 W/m 4,2 km/h (1 Bft)
25.06.2014 20:44 18,5 C 17,2 C 56 % 1015,1 hPa 0,0 l/m 2 min 0 min 0,0 UV-I 83 W/m 2,1 km/h (1 Bft)
25.06.2014 20:46 18,4 C 17,2 C 56 % 1015,2 hPa 0,0 l/m 0 min 0 min 0,0 UV-I 72 W/m 10,5 km/h (2 Bft)
25.06.2014 20:48 18,4 C 17,2 C 56 % 1015,1 hPa 0,0 l/m 0 min 0 min 0,0 UV-I 71 W/m 8,4 km/h (2 Bft)
25.06.2014 20:50 18,4 C 16,7 C 56 % 1015,1 hPa 0,0 l/m 0 min 0 min 0,0 UV-I 67 W/m 8,4 km/h (2 Bft)
25.06.2014 20:52 18,4 C 16,7 C 56 % 1015,1 hPa 0,0 l/m 2 min 0 min 0,0 UV-I 69 W/m 8,4 km/h (2 Bft)
25.06.2014 20:54 18,3 C 16,7 C 57 % 1015,2 hPa 0,0 l/m 2 min 0 min 0,0 UV-I 68 W/m 4,2 km/h (1 Bft)
25.06.2014 20:56 18,3 C 16,7 C 57 % 1015,2 hPa 0,0 l/m 2 min 0 min 0,0 UV-I 63 W/m 6,3 km/h (2 Bft)
25.06.2014 20:58 18,2 C 16,1 C 57 % 1015,2 hPa 0,0 l/m 0 min 0 min 0,0 UV-I 56 W/m 2,1 km/h (1 Bft)
25.06.2014 21:00 18,2 C 16,1 C 58 % 1015,2 hPa 0,0 l/m 0 min 0 min 0,0 UV-I 50 W/m 2,1 km/h (1 Bft)
25.06.2014 21:02 18,1 C 15,6 C 58 % 1015,2 hPa 0,0 l/m 0 min 0 min 0,0 UV-I 45 W/m 0,0 km/h (0 Bft)
25.06.2014 21:04 18,0 C 15,0 C 58 % 1015,2 hPa 0,0 l/m 0 min 0 min 0,0 UV-I 41 W/m 0,0 km/h (0 Bft)
25.06.2014 21:06 17,9 C 15,0 C 59 % 1015,2 hPa 0,0 l/m 0 min 0 min 0,0 UV-I 41 W/m 0,0 km/h (0 Bft)
25.06.2014 21:08 17,7 C 14,4 C 60 % 1015,3 hPa 0,0 l/m 0 min 0 min 0,0 UV-I 42 W/m 2,1 km/h (1 Bft)
25.06.2014 21:10 17,7 C 14,4 C 59 % 1015,2 hPa 0,0 l/m 0 min 0 min 0,0 UV-I 41 W/m 0,0 km/h (0 Bft)
25.06.2014 21:12 17,6 C 14,4 C 60 % 1015,2 hPa 0,0 l/m 0 min 0 min 0,0 UV-I 38 W/m 0,0 km/h (0 Bft)
25.06.2014 21:14 17,6 C 14,4 C 60 % 1015,2 hPa 0,0 l/m 0 min 0 min 0,0 UV-I 36 W/m 0,0 km/h (0 Bft)
25.06.2014 21:16 17,5 C 13,9 C 60 % 1015,3 hPa 0,0 l/m 0 min 0 min 0,0 UV-I 36 W/m 0,0 km/h (0 Bft)
25.06.2014 21:18 17,4 C 13,9 C 60 % 1015,2 hPa 0,0 l/m 2 min 0 min 0,0 UV-I 36 W/m 0,0 km/h (0 Bft)
25.06.2014 21:20 17,4 C 14,4 C 60 % 1015,3 hPa 0,0 l/m 0 min 0 min 0,0 UV-I 29 W/m 2,1 km/h (1 Bft)
25.06.2014 21:22 17,4 C 14,4 C 60 % 1015,3 hPa 0,0 l/m 0 min 0 min 0,0 UV-I 24 W/m 2,1 km/h (1 Bft)
25.06.2014 21:24 17,3 C 14,4 C 60 % 1015,4 hPa 0,0 l/m 0 min 0 min 0,0 UV-I 23 W/m 0,0 km/h (0 Bft)
25.06.2014 21:26 17,3 C 14,4 C 62 % 1015,4 hPa 0,0 l/m 0 min 0 min 0,0 UV-I 23 W/m 0,0 km/h (0 Bft)
25.06.2014 21:28 17,2 C 13,9 C 61 % 1015,4 hPa 0,0 l/m 0 min 0 min 0,0 UV-I 20 W/m 2,1 km/h (1 Bft)
25.06.2014 21:30 17,2 C 13,9 C 61 % 1015,4 hPa 0,0 l/m 0 min 0 min 0,0 UV-I 18 W/m 0,0 km/h (0 Bft)
25.06.2014 21:32 17,2 C 13,9 C 61 % 1015,4 hPa 0,0 l/m 0 min 0 min 0,0 UV-I 15 W/m 0,0 km/h (0 Bft)
25.06.2014 21:34 17,2 C 13,9 C 63 % 1015,5 hPa 0,0 l/m 0 min 0 min 0,0 UV-I 14 W/m 0,0 km/h (0 Bft)
25.06.2014 21:36 17,1 C 13,9 C 62 % 1015,4 hPa 0,0 l/m 2 min 0 min 0,0 UV-I 14 W/m 0,0 km/h (0 Bft)
25.06.2014 21:38 17,1 C 13,9 C 62 % 1015,5 hPa 0,0 l/m 0 min 0 min 0,0 UV-I 10 W/m 2,1 km/h (1 Bft)
25.06.2014 21:40 17,0 C 13,9 C 62 % 1015,4 hPa 0,0 l/m 2 min 0 min 0,0 UV-I 10 W/m 0,0 km/h (0 Bft)
25.06.2014 21:42 16,9 C 13,9 C 63 % 1015,4 hPa 0,0 l/m 0 min 0 min 0,0 UV-I 10 W/m 0,0 km/h (0 Bft)
25.06.2014 21:44 16,9 C 13,9 C 63 % 1015,5 hPa 0,0 l/m 0 min 0 min 0,0 UV-I 8 W/m 0,0 km/h (0 Bft)
25.06.2014 21:46 16,8 C 13,9 C 63 % 1015,5 hPa 0,0 l/m 0 min 0 min 0,0 UV-I 8 W/m 0,0 km/h (0 Bft)
25.06.2014 21:48 16,7 C 13,9 C 64 % 1015,5 hPa 0,0 l/m 0 min 0 min 0,0 UV-I 6 W/m 0,0 km/h (0 Bft)
25.06.2014 21:50 16,7 C 13,3 C 63 % 1015,6 hPa 0,0 l/m 0 min 0 min 0,0 UV-I 6 W/m 0,0 km/h (0 Bft)
25.06.2014 21:52 16,6 C 13,3 C 64 % 1015,6 hPa 0,0 l/m 0 min 0 min 0,0 UV-I 6 W/m 0,0 km/h (0 Bft)
25.06.2014 21:54 16,6 C 13,3 C 64 % 1015,6 hPa 0,0 l/m 0 min 0 min 0,0 UV-I 6 W/m 0,0 km/h (0 Bft)
25.06.2014 21:56 16,6 C 13,3 C 64 % 1015,7 hPa 0,0 l/m 0 min 0 min 0,0 UV-I 0 W/m 0,0 km/h (0 Bft)
25.06.2014 21:58 16,6 C 13,3 C 65 % 1015,7 hPa 0,0 l/m 0 min 0 min 0,0 UV-I 0 W/m 0,0 km/h (0 Bft)
25.06.2014 22:00 16,5 C 13,3 C 66 % 1015,7 hPa 0,0 l/m 0 min 0 min 0,0 UV-I 0 W/m 0,0 km/h (0 Bft)
25.06.2014 22:02 16,4 C 13,3 C 66 % 1015,7 hPa 0,0 l/m 0 min 0 min 0,0 UV-I 0 W/m 0,0 km/h (0 Bft)
25.06.2014 22:04 16,3 C 13,3 C 66 % 1015,7 hPa 0,0 l/m 0 min 0 min 0,0 UV-I 0 W/m 0,0 km/h (0 Bft)
25.06.2014 22:06 16,3 C 13,3 C 67 % 1015,7 hPa 0,0 l/m 0 min 0 min 0,0 UV-I 0 W/m 0,0 km/h (0 Bft)
25.06.2014 22:08 16,2 C 13,3 C 67 % 1015,7 hPa 0,0 l/m 0 min 0 min 0,0 UV-I 0 W/m 0,0 km/h (0 Bft)
25.06.2014 22:10 16,2 C 13,3 C 67 % 1015,8 hPa 0,0 l/m 0 min 0 min 0,0 UV-I 0 W/m 0,0 km/h (0 Bft)
25.06.2014 22:12 16,1 C 13,3 C 68 % 1015,8 hPa 0,0 l/m 0 min 0 min 0,0 UV-I 0 W/m 0,0 km/h (0 Bft)
25.06.2014 22:14 16,0 C 13,3 C 68 % 1015,8 hPa 0,0 l/m 0 min 0 min 0,0 UV-I 0 W/m 0,0 km/h (0 Bft)
25.06.2014 22:16 15,9 C 13,3 C 69 % 1015,8 hPa 0,0 l/m 0 min 0 min 0,0 UV-I 0 W/m 0,0 km/h (0 Bft)
25.06.2014 22:18 15,9 C 13,3 C 69 % 1015,8 hPa 0,0 l/m 0 min 0 min 0,0 UV-I 0 W/m 0,0 km/h (0 Bft)
25.06.2014 22:20 15,9 C 13,3 C 69 % 1015,8 hPa 0,0 l/m 0 min 0 min 0,0 UV-I 0 W/m 0,0 km/h (0 Bft)
25.06.2014 22:22 15,8 C 13,3 C 70 % 1015,8 hPa 0,0 l/m 0 min 0 min 0,0 UV-I 0 W/m 0,0 km/h (0 Bft)
25.06.2014 22:24 15,7 C 13,3 C 70 % 1015,8 hPa 0,0 l/m 0 min 0 min 0,0 UV-I 0 W/m 0,0 km/h (0 Bft)
25.06.2014 22:26 15,6 C 12,8 C 70 % 1015,8 hPa 0,0 l/m 0 min 0 min 0,0 UV-I 0 W/m 0,0 km/h (0 Bft)
25.06.2014 22:28 15,6 C 12,8 C 70 % 1015,8 hPa 0,0 l/m 0 min 0 min 0,0 UV-I 0 W/m 0,0 km/h (0 Bft)
25.06.2014 22:30 15,6 C 12,8 C 71 % 1015,8 hPa 0,0 l/m 0 min 0 min 0,0 UV-I 0 W/m 0,0 km/h (0 Bft)
25.06.2014 22:32 15,5 C 12,8 C 70 % 1015,8 hPa 0,0 l/m 0 min 0 min 0,0 UV-I 0 W/m 0,0 km/h (0 Bft)
25.06.2014 22:34 15,5 C 12,8 C 70 % 1015,8 hPa 0,0 l/m 0 min 0 min 0,0 UV-I 0 W/m 0,0 km/h (0 Bft)
25.06.2014 22:36 15,5 C 12,8 C 70 % 1015,8 hPa 0,0 l/m 0 min 0 min 0,0 UV-I 0 W/m 0,0 km/h (0 Bft)
25.06.2014 22:38 15,4 C 12,8 C 71 % 1015,8 hPa 0,0 l/m 0 min 0 min 0,0 UV-I 0 W/m 0,0 km/h (0 Bft)
25.06.2014 22:40 15,3 C 12,8 C 72 % 1015,8 hPa 0,0 l/m 0 min 0 min 0,0 UV-I 0 W/m 0,0 km/h (0 Bft)
25.06.2014 22:42 15,2 C 12,8 C 71 % 1015,9 hPa 0,0 l/m 0 min 0 min 0,0 UV-I 0 W/m 0,0 km/h (0 Bft)
25.06.2014 22:44 15,2 C 12,8 C 72 % 1015,9 hPa 0,0 l/m 0 min 0 min 0,0 UV-I 0 W/m 0,0 km/h (0 Bft)
25.06.2014 22:46 15,1 C 12,8 C 72 % 1015,9 hPa 0,0 l/m 0 min 0 min 0,0 UV-I 0 W/m 0,0 km/h (0 Bft)
25.06.2014 22:48 15,1 C 12,8 C 72 % 1015,9 hPa 0,0 l/m 0 min 0 min 0,0 UV-I 0 W/m 0,0 km/h (0 Bft)
25.06.2014 22:50 14,9 C 12,2 C 72 % 1015,9 hPa 0,0 l/m 0 min 0 min 0,0 UV-I 0 W/m 0,0 km/h (0 Bft)
25.06.2014 22:52 14,9 C 12,2 C 73 % 1015,9 hPa 0,0 l/m 0 min 0 min 0,0 UV-I 0 W/m 0,0 km/h (0 Bft)
25.06.2014 22:53 14,8 C 12,2 C 73 % 1015,9 hPa 0,0 l/m 0 min 0 min 0,0 UV-I 0 W/m 0,0 km/h (0 Bft)
25.06.2014 22:54 14,8 C 12,2 C 73 % 1015,9 hPa 0,0 l/m 0 min 0 min 0,0 UV-I 0 W/m 0,0 km/h (0 Bft)
25.06.2014 22:55 14,8 C 12,2 C 73 % 1015,9 hPa 0,0 l/m 0 min 0 min 0,0 UV-I 0 W/m 0,0 km/h (0 Bft)
25.06.2014 22:56 14,7 C 12,2 C 73 % 1015,9 hPa 0,0 l/m 0 min 0 min 0,0 UV-I 0 W/m 0,0 km/h (0 Bft)
25.06.2014 22:57 14,7 C 12,2 C 73 % 1015,9 hPa 0,0 l/m 0 min 0 min 0,0 UV-I 0 W/m 0,0 km/h (0 Bft)
25.06.2014 22:58 14,7 C 12,2 C 74 % 1016,0 hPa 0,0 l/m 0 min 0 min 0,0 UV-I 0 W/m 0,0 km/h (0 Bft)
25.06.2014 22:59 14,7 C 12,2 C 74 % 1015,9 hPa 0,0 l/m 0 min 0 min 0,0 UV-I 0 W/m 0,0 km/h (0 Bft)
25.06.2014 23:00 14,6 C 12,2 C 74 % 1015,9 hPa 0,0 l/m 0 min 0 min 0,0 UV-I 0 W/m 0,0 km/h (0 Bft)
25.06.2014 23:01 14,6 C 12,2 C 74 % 1015,9 hPa 0,0 l/m 0 min 0 min 0,0 UV-I 0 W/m 0,0 km/h (0 Bft)
25.06.2014 23:02 14,5 C 12,2 C 74 % 1015,9 hPa 0,0 l/m 0 min 0 min 0,0 UV-I 0 W/m 0,0 km/h (0 Bft)
25.06.2014 23:03 14,4 C 12,2 C 74 % 1015,9 hPa 0,0 l/m 0 min 0 min 0,0 UV-I 0 W/m 0,0 km/h (0 Bft)
25.06.2014 23:04 14,4 C 12,2 C 74 % 1015,9 hPa 0,0 l/m 0 min 0 min 0,0 UV-I 0 W/m 0,0 km/h (0 Bft)
25.06.2014 23:05 14,3 C 12,2 C 74 % 1015,9 hPa 0,0 l/m 0 min 0 min 0,0 UV-I 0 W/m 0,0 km/h (0 Bft)
25.06.2014 23:06 14,2 C 12,2 C 75 % 1015,9 hPa 0,0 l/m 0 min 0 min 0,0 UV-I 0 W/m 0,0 km/h (0 Bft)
25.06.2014 23:07 14,2 C 12,2 C 75 % 1015,8 hPa 0,0 l/m 0 min 0 min 0,0 UV-I 0 W/m 0,0 km/h (0 Bft)
25.06.2014 23:08 14,2 C 12,2 C 75 % 1015,9 hPa 0,0 l/m 0 min 0 min 0,0 UV-I 0 W/m 0,0 km/h (0 Bft)
25.06.2014 23:09 14,2 C 12,2 C 75 % 1015,9 hPa 0,0 l/m 0 min 0 min 0,0 UV-I 0 W/m 0,0 km/h (0 Bft)
25.06.2014 23:12 14,2 C 11,7 C 75 % 1015,8 hPa 0,0 l/m 0 min 0 min 0,0 UV-I 0 W/m 0,0 km/h (0 Bft)
25.06.2014 23:14 14,1 C 11,7 C 76 % 1015,9 hPa 0,0 l/m 0 min 0 min 0,0 UV-I 0 W/m 0,0 km/h (0 Bft)
25.06.2014 23:16 14,1 C 11,7 C 76 % 1015,8 hPa 0,0 l/m 0 min 0 min 0,0 UV-I 0 W/m 0,0 km/h (0 Bft)
25.06.2014 23:18 14,0 C 11,7 C 76 % 1015,8 hPa 0,0 l/m 0 min 0 min 0,0 UV-I 0 W/m 0,0 km/h (0 Bft)
25.06.2014 23:20 13,9 C 11,7 C 76 % 1015,8 hPa 0,0 l/m 0 min 0 min 0,0 UV-I 0 W/m 0,0 km/h (0 Bft)
25.06.2014 23:22 13,9 C 11,7 C 76 % 1015,8 hPa 0,0 l/m 0 min 0 min 0,0 UV-I 0 W/m 0,0 km/h (0 Bft)
25.06.2014 23:24 13,8 C 11,7 C 77 % 1015,8 hPa 0,0 l/m 0 min 0 min 0,0 UV-I 0 W/m 0,0 km/h (0 Bft)
25.06.2014 23:26 13,8 C 11,7 C 77 % 1015,8 hPa 0,0 l/m 0 min 0 min 0,0 UV-I 0 W/m 0,0 km/h (0 Bft)
25.06.2014 23:28 13,7 C 11,7 C 77 % 1015,8 hPa 0,0 l/m 0 min 0 min 0,0 UV-I 0 W/m 0,0 km/h (0 Bft)
25.06.2014 23:30 13,7 C 11,7 C 77 % 1015,8 hPa 0,0 l/m 0 min 0 min 0,0 UV-I 0 W/m 0,0 km/h (0 Bft)
25.06.2014 23:32 13,7 C 11,7 C 77 % 1015,8 hPa 0,0 l/m 0 min 0 min 0,0 UV-I 0 W/m 0,0 km/h (0 Bft)
25.06.2014 23:34 13,7 C 11,7 C 77 % 1015,8 hPa 0,0 l/m 0 min 0 min 0,0 UV-I 0 W/m 0,0 km/h (0 Bft)
25.06.2014 23:36 13,6 C 11,7 C 78 % 1015,8 hPa 0,0 l/m 0 min 0 min 0,0 UV-I 0 W/m 0,0 km/h (0 Bft)
25.06.2014 23:38 13,6 C 11,7 C 78 % 1015,8 hPa 0,0 l/m 0 min 0 min 0,0 UV-I 0 W/m 0,0 km/h (0 Bft)
25.06.2014 23:40 13,5 C 11,7 C 78 % 1015,8 hPa 0,0 l/m 0 min 0 min 0,0 UV-I 0 W/m 0,0 km/h (0 Bft)
25.06.2014 23:42 13,5 C 11,1 C 79 % 1015,8 hPa 0,0 l/m 0 min 0 min 0,0 UV-I 0 W/m 0,0 km/h (0 Bft)
25.06.2014 23:44 13,4 C 11,1 C 79 % 1015,8 hPa 0,0 l/m 0 min 0 min 0,0 UV-I 0 W/m 0,0 km/h (0 Bft)
25.06.2014 23:46 13,4 C 11,1 C 79 % 1015,8 hPa 0,0 l/m 0 min 0 min 0,0 UV-I 0 W/m 0,0 km/h (0 Bft)
25.06.2014 23:48 13,3 C 11,1 C 80 % 1015,8 hPa 0,0 l/m 0 min 0 min 0,0 UV-I 0 W/m 0,0 km/h (0 Bft)
25.06.2014 23:50 13,2 C 11,1 C 81 % 1015,8 hPa 0,0 l/m 0 min 0 min 0,0 UV-I 0 W/m 0,0 km/h (0 Bft)
25.06.2014 23:52 13,2 C 11,1 C 81 % 1015,8 hPa 0,0 l/m 0 min 0 min 0,0 UV-I 0 W/m 0,0 km/h (0 Bft)
25.06.2014 23:54 13,2 C 11,1 C 81 % 1015,8 hPa 0,0 l/m 0 min 0 min 0,0 UV-I 0 W/m 0,0 km/h (0 Bft)
25.06.2014 23:56 13,1 C 11,1 C 81 % 1015,8 hPa 0,0 l/m 0 min 0 min 0,0 UV-I 0 W/m 0,0 km/h (0 Bft)
25.06.2014 23:58 13,1 C 11,1 C 81 % 1015,8 hPa 0,0 l/m 0 min 0 min 0,0 UV-I 0 W/m 0,0 km/h (0 Bft)
_ Min-Zeit 05:48 05:52 17:24 04:44 - - - - - 00:14
Minimum _ 9,9 C 8,9 C 51 % 1014,9 hPa - - - - - 0,0 km/h (0 Bft)
_ Max-Zeit 17:24 14:36 05:04 12:12 00:00 05:34 00:02 13:40 15:32 16:20
Maximum _ 19,8 C 25,6 C 95 % 1016,2 hPa 0,0 l/m 2 min 2 min 5,9 UV-I 1053 W/m 29,3 km/h
O-NO (5 Bft)
Durchschnitt _ 15,2 C 14,7 C 73 % 1015,5 hPa #0,0 l/m #10:38 h #14 min. 2,1 UV-I 393 W/m 11,3 km/h (2 Bft)
© 2014 W. Hausmann